KAL901 RKSI-LFPG
Flight info
| Callsign | KAL901 |
|---|---|
| Flight time | 13h 14m |
| Altitude | 32000 |
| Route | NOPIK Y697 AGAVO/K0906S0920 A591 IKEKA W4 HCH W200 DOVIV W55 PAMRU/K0898S0980 W34 LADIX B339 ASILA A575 UPREK W28 LAGEB W66 NUKTI B215 IRPEP/K0895S1040 B215 KABDO W119 GOBOK A343 RULAD/N0480F340 M610 ARBOL Z621 ELAHA N147 GENKU/N0478F360 N147 OTBOR A480 TIMGA B476 METKA L88 RASAM N199 LUSAL M11 REBLO UM11 CRM UL746 ODERO DCT LUGEB DCT SOKRU DCT DEGET/N0471F380 DCT BEGLA DCT DEXIT DCT INBED DCT BOMBI DCT RUDUS DCT OBIGA DCT NOSPA DCT BITBU/N0447F300 DCT DIK UN857 TOLVU/N0439F290 DCT RAPOR DCT VEDUS |
| Aircraft | B77W/H-SDE2FGHIJ1J3J5M1P2RWXYZ/LB1D1 |
Departure
| Time | 2026-05-05 02:41 |
|---|---|
| Airport | Incheon International Airport (RKSI) |
Arrival
| Time | 2026-05-05 15:56 |
|---|---|
| Airport | Charles de Gaulle International Airport (LFPG) |
| Time | Latitude | Longitude | Altitude | Speed | Heading |
|---|---|---|---|---|---|
| 2026-05-05 02:17 | 37.46325 | 126.43203 | 35 ft | 0 kts | 66° |
| 2026-05-05 02:29 | 37.46321 | 126.43194 | 35 ft | 2 kts | 66° |
| 2026-05-05 02:29 | 37.46315 | 126.43176 | 35 ft | 2 kts | 66° |
| 2026-05-05 02:30 | 37.46309 | 126.43160 | 35 ft | 2 kts | 66° |
| 2026-05-05 02:30 | 37.46303 | 126.43142 | 35 ft | 2 kts | 66° |
| 2026-05-05 02:30 | 37.46297 | 126.43125 | 35 ft | 1 kts | 66° |
| 2026-05-05 02:30 | 37.46293 | 126.43114 | 35 ft | 2 kts | 60° |
| 2026-05-05 02:31 | 37.46283 | 126.43100 | 35 ft | 2 kts | 30° |
| 2026-05-05 02:31 | 37.46270 | 126.43093 | 35 ft | 2 kts | 7° |
| 2026-05-05 02:31 | 37.46255 | 126.43094 | 35 ft | 2 kts | 343° |
| 2026-05-05 02:31 | 37.46248 | 126.43098 | 35 ft | 1 kts | 335° |
| 2026-05-05 02:32 | 37.46247 | 126.43098 | 35 ft | 0 kts | 335° |
| 2026-05-05 02:34 | 37.46261 | 126.43090 | 35 ft | 3 kts | 335° |
| 2026-05-05 02:34 | 37.46298 | 126.43070 | 35 ft | 7 kts | 336° |
| 2026-05-05 02:34 | 37.46349 | 126.43026 | 35 ft | 9 kts | 296° |
| 2026-05-05 02:34 | 37.46331 | 126.42945 | 35 ft | 10 kts | 235° |
| 2026-05-05 02:35 | 37.46302 | 126.42863 | 35 ft | 9 kts | 286° |
| 2026-05-05 02:35 | 37.46342 | 126.42803 | 35 ft | 8 kts | 322° |
| 2026-05-05 02:35 | 37.46391 | 126.42758 | 35 ft | 9 kts | 324° |
| 2026-05-05 02:35 | 37.46446 | 126.42710 | 35 ft | 10 kts | 324° |
| 2026-05-05 02:36 | 37.46510 | 126.42653 | 35 ft | 12 kts | 324° |
| 2026-05-05 02:36 | 37.46586 | 126.42585 | 35 ft | 14 kts | 324° |
| 2026-05-05 02:36 | 37.46671 | 126.42509 | 35 ft | 15 kts | 324° |
| 2026-05-05 02:36 | 37.46764 | 126.42427 | 35 ft | 17 kts | 324° |
| 2026-05-05 02:37 | 37.46865 | 126.42337 | 35 ft | 18 kts | 324° |
| 2026-05-05 02:37 | 37.46972 | 126.42242 | 35 ft | 19 kts | 324° |
| 2026-05-05 02:37 | 37.47084 | 126.42142 | 35 ft | 20 kts | 324° |
| 2026-05-05 02:37 | 37.47200 | 126.42039 | 35 ft | 19 kts | 324° |
| 2026-05-05 02:38 | 37.47301 | 126.41950 | 35 ft | 16 kts | 324° |
| 2026-05-05 02:38 | 37.47382 | 126.41878 | 35 ft | 9 kts | 324° |
| 2026-05-05 02:38 | 37.47404 | 126.41814 | 35 ft | 7 kts | 260° |
| 2026-05-05 02:38 | 37.47381 | 126.41763 | 35 ft | 6 kts | 236° |
| 2026-05-05 02:39 | 37.47355 | 126.41716 | 35 ft | 6 kts | 235° |
| 2026-05-05 02:39 | 37.47330 | 126.41671 | 35 ft | 6 kts | 234° |
| 2026-05-05 02:39 | 37.47306 | 126.41627 | 35 ft | 6 kts | 234° |
| 2026-05-05 02:39 | 37.47281 | 126.41589 | 35 ft | 5 kts | 214° |
| 2026-05-05 02:40 | 37.47240 | 126.41588 | 35 ft | 7 kts | 154° |
| 2026-05-05 02:40 | 37.47173 | 126.41644 | 35 ft | 25 kts | 145° |
| 2026-05-05 02:40 | 37.46866 | 126.41917 | 35 ft | 82 kts | 144° |
| 2026-05-05 02:40 | 37.46241 | 126.42474 | 35 ft | 135 kts | 144° |
| 2026-05-05 02:41 | 37.45341 | 126.43276 | 36 ft | 179 kts | 144° |
| 2026-05-05 02:41 | 37.44264 | 126.44223 | 284 ft | 195 kts | 149° |
| 2026-05-05 02:41 | 37.43043 | 126.45097 | 778 ft | 206 kts | 152° |
| 2026-05-05 02:41 | 37.41812 | 126.45988 | 1554 ft | 206 kts | 151° |
| 2026-05-05 02:42 | 37.40609 | 126.46894 | 2067 ft | 206 kts | 151° |
| 2026-05-05 02:42 | 37.39360 | 126.47839 | 2423 ft | 210 kts | 151° |
| 2026-05-05 02:42 | 37.38042 | 126.48606 | 2817 ft | 210 kts | 165° |
| 2026-05-05 02:42 | 37.36625 | 126.49099 | 3208 ft | 214 kts | 166° |
| 2026-05-05 02:43 | 37.35127 | 126.49602 | 3323 ft | 231 kts | 166° |
| 2026-05-05 02:43 | 37.33525 | 126.50145 | 3504 ft | 246 kts | 166° |
| 2026-05-05 02:43 | 37.31849 | 126.50713 | 3874 ft | 254 kts | 166° |
| 2026-05-05 02:43 | 37.30121 | 126.51292 | 4362 ft | 257 kts | 169° |
| 2026-05-05 02:44 | 37.28357 | 126.51346 | 4778 ft | 258 kts | 194° |
| 2026-05-05 02:44 | 37.26718 | 126.50420 | 5235 ft | 259 kts | 217° |
| 2026-05-05 02:44 | 37.25349 | 126.48953 | 5598 ft | 266 kts | 223° |
| 2026-05-05 02:44 | 37.23949 | 126.47309 | 5755 ft | 283 kts | 223° |
| 2026-05-05 02:45 | 37.22480 | 126.45573 | 5926 ft | 299 kts | 223° |
| 2026-05-05 02:45 | 37.20907 | 126.43725 | 6103 ft | 315 kts | 223° |
| 2026-05-05 02:45 | 37.19282 | 126.41813 | 6363 ft | 327 kts | 223° |
| 2026-05-05 02:45 | 37.17620 | 126.39863 | 6872 ft | 331 kts | 223° |
| 2026-05-05 02:46 | 37.15939 | 126.37897 | 7413 ft | 334 kts | 223° |
| 2026-05-05 02:46 | 37.14225 | 126.35891 | 7911 ft | 339 kts | 223° |
| 2026-05-05 02:46 | 37.12498 | 126.33850 | 8413 ft | 342 kts | 225° |
| 2026-05-05 02:46 | 37.11140 | 126.31430 | 8837 ft | 347 kts | 245° |
| 2026-05-05 02:47 | 37.10487 | 126.28532 | 9320 ft | 350 kts | 262° |
| 2026-05-05 02:47 | 37.10366 | 126.25446 | 9810 ft | 354 kts | 268° |
| 2026-05-05 02:47 | 37.10346 | 126.22362 | 10289 ft | 357 kts | 268° |
| 2026-05-05 02:47 | 37.10327 | 126.19275 | 10720 ft | 361 kts | 268° |
| 2026-05-05 02:48 | 37.10303 | 126.16074 | 11201 ft | 366 kts | 268° |
| 2026-05-05 02:48 | 37.10278 | 126.12888 | 11665 ft | 370 kts | 270° |
| 2026-05-05 02:48 | 37.10552 | 126.09672 | 12118 ft | 376 kts | 282° |
| 2026-05-05 02:48 | 37.11362 | 126.06565 | 12622 ft | 381 kts | 292° |
| 2026-05-05 02:49 | 37.12401 | 126.03515 | 13182 ft | 384 kts | 293° |
| 2026-05-05 02:49 | 37.13473 | 126.00414 | 13782 ft | 387 kts | 293° |
| 2026-05-05 02:49 | 37.14543 | 125.97317 | 14405 ft | 391 kts | 293° |
| 2026-05-05 02:49 | 37.15615 | 125.94204 | 15055 ft | 393 kts | 293° |
| 2026-05-05 02:50 | 37.16704 | 125.91040 | 15744 ft | 396 kts | 293° |
| 2026-05-05 02:50 | 37.17782 | 125.87900 | 16415 ft | 397 kts | 293° |
| 2026-05-05 02:50 | 37.18882 | 125.84695 | 17055 ft | 400 kts | 294° |
| 2026-05-05 02:50 | 37.19975 | 125.81503 | 17649 ft | 404 kts | 293° |
| 2026-05-05 02:51 | 37.21076 | 125.78285 | 18259 ft | 407 kts | 294° |
| 2026-05-05 02:51 | 37.22199 | 125.75001 | 18906 ft | 409 kts | 294° |
| 2026-05-05 02:51 | 37.23315 | 125.71733 | 19517 ft | 410 kts | 294° |
| 2026-05-05 02:51 | 37.24430 | 125.68462 | 20172 ft | 411 kts | 294° |
| 2026-05-05 02:52 | 37.25559 | 125.65147 | 20754 ft | 414 kts | 294° |
| 2026-05-05 02:52 | 37.26691 | 125.61820 | 21278 ft | 417 kts | 294° |
| 2026-05-05 02:52 | 37.27825 | 125.58484 | 21824 ft | 420 kts | 294° |
| 2026-05-05 02:52 | 37.28964 | 125.55129 | 22377 ft | 422 kts | 294° |
| 2026-05-05 02:53 | 37.30107 | 125.51756 | 22934 ft | 423 kts | 294° |
| 2026-05-05 02:53 | 37.31259 | 125.48358 | 23428 ft | 426 kts | 294° |
| 2026-05-05 02:53 | 37.32420 | 125.44924 | 23896 ft | 429 kts | 294° |
| 2026-05-05 02:53 | 37.33589 | 125.41466 | 24380 ft | 431 kts | 294° |
| 2026-05-05 02:54 | 37.34762 | 125.37990 | 24853 ft | 434 kts | 294° |
| 2026-05-05 02:54 | 37.35939 | 125.34499 | 25318 ft | 436 kts | 294° |
| 2026-05-05 02:54 | 37.37127 | 125.30970 | 25775 ft | 438 kts | 294° |
| 2026-05-05 02:54 | 37.38305 | 125.27431 | 26193 ft | 441 kts | 291° |
| 2026-05-05 02:55 | 37.39173 | 125.23763 | 26545 ft | 446 kts | 282° |
| 2026-05-05 02:55 | 37.39574 | 125.19866 | 26882 ft | 451 kts | 273° |
| 2026-05-05 02:55 | 37.39578 | 125.15904 | 27252 ft | 455 kts | 270° |
| 2026-05-05 02:55 | 37.39512 | 125.11933 | 27659 ft | 457 kts | 270° |
| 2026-05-05 02:56 | 37.39440 | 125.07983 | 28049 ft | 460 kts | 270° |
| 2026-05-05 02:56 | 37.39365 | 125.03929 | 28408 ft | 463 kts | 270° |
| 2026-05-05 02:56 | 37.39291 | 124.99918 | 28753 ft | 466 kts | 270° |
| 2026-05-05 02:56 | 37.39213 | 124.95834 | 29111 ft | 469 kts | 270° |
| 2026-05-05 02:57 | 37.39135 | 124.91757 | 29467 ft | 471 kts | 270° |
| 2026-05-05 02:57 | 37.39053 | 124.87609 | 29817 ft | 474 kts | 270° |
| 2026-05-05 02:57 | 37.38971 | 124.83458 | 30155 ft | 477 kts | 270° |
| 2026-05-05 02:58 | 37.38799 | 124.75036 | 30203 ft | 489 kts | 270° |
| 2026-05-05 02:58 | 37.38616 | 124.66480 | 30197 ft | 488 kts | 270° |
| 2026-05-05 02:59 | 37.38429 | 124.57996 | 30192 ft | 488 kts | 270° |
| 2026-05-05 02:59 | 37.38233 | 124.49445 | 30184 ft | 489 kts | 269° |
| 2026-05-05 03:00 | 37.36991 | 124.41095 | 30181 ft | 493 kts | 252° |
| 2026-05-05 03:00 | 37.33839 | 124.33433 | 30184 ft | 497 kts | 239° |
| 2026-05-05 03:01 | 37.30173 | 124.26092 | 30179 ft | 496 kts | 239° |
| 2026-05-05 03:01 | 37.26505 | 124.18785 | 30183 ft | 497 kts | 239° |
| 2026-05-05 03:02 | 37.22826 | 124.11498 | 30178 ft | 496 kts | 238° |
| 2026-05-05 03:02 | 37.18973 | 124.04268 | 30174 ft | 498 kts | 237° |
| 2026-05-05 03:03 | 37.15134 | 123.97047 | 30179 ft | 497 kts | 238° |
| 2026-05-05 03:03 | 37.11404 | 123.89799 | 30189 ft | 499 kts | 238° |
| 2026-05-05 03:04 | 37.07660 | 123.82540 | 30184 ft | 497 kts | 238° |
| 2026-05-05 03:04 | 37.03904 | 123.75274 | 30189 ft | 499 kts | 238° |
| 2026-05-05 03:05 | 37.00127 | 123.67989 | 30183 ft | 497 kts | 238° |
| 2026-05-05 03:05 | 36.96345 | 123.60708 | 30178 ft | 499 kts | 238° |
| 2026-05-05 03:06 | 36.92588 | 123.53493 | 30173 ft | 498 kts | 238° |
| 2026-05-05 03:06 | 36.88808 | 123.46242 | 30169 ft | 498 kts | 239° |
| 2026-05-05 03:07 | 36.86039 | 123.38424 | 30161 ft | 496 kts | 257° |
| 2026-05-05 03:07 | 36.85250 | 123.29960 | 30164 ft | 491 kts | 274° |
| 2026-05-05 03:08 | 36.86459 | 123.21632 | 30168 ft | 489 kts | 288° |
| 2026-05-05 03:08 | 36.88415 | 123.13539 | 30161 ft | 490 kts | 288° |
| 2026-05-05 03:09 | 36.90389 | 123.05374 | 30162 ft | 489 kts | 288° |
| 2026-05-05 03:09 | 36.92332 | 122.97289 | 30151 ft | 489 kts | 288° |
| 2026-05-05 03:10 | 36.94284 | 122.89132 | 30145 ft | 488 kts | 288° |
| 2026-05-05 03:10 | 36.96214 | 122.81033 | 30155 ft | 489 kts | 288° |
| 2026-05-05 03:11 | 36.98136 | 122.72934 | 30148 ft | 488 kts | 288° |
| 2026-05-05 03:11 | 37.00053 | 122.64836 | 30146 ft | 487 kts | 288° |
| 2026-05-05 03:12 | 37.01971 | 122.56703 | 30140 ft | 488 kts | 288° |
| 2026-05-05 03:12 | 37.03874 | 122.48605 | 30140 ft | 489 kts | 288° |
| 2026-05-05 03:13 | 37.05804 | 122.40427 | 30132 ft | 487 kts | 290° |
| 2026-05-05 03:13 | 37.08852 | 122.32963 | 30134 ft | 482 kts | 307° |
| 2026-05-05 03:14 | 37.13388 | 122.26842 | 30130 ft | 481 kts | 313° |
| 2026-05-05 03:14 | 37.17137 | 122.19946 | 30138 ft | 482 kts | 299° |
| 2026-05-05 03:15 | 37.20021 | 122.12360 | 30122 ft | 484 kts | 295° |
| 2026-05-05 03:15 | 37.22550 | 122.04524 | 30126 ft | 486 kts | 292° |
| 2026-05-05 03:16 | 37.24863 | 121.96558 | 30107 ft | 485 kts | 291° |
| 2026-05-05 03:16 | 37.27051 | 121.88610 | 30111 ft | 485 kts | 290° |
| 2026-05-05 03:17 | 37.29190 | 121.80569 | 30107 ft | 485 kts | 290° |
| 2026-05-05 03:17 | 37.31279 | 121.72564 | 30112 ft | 484 kts | 290° |
| 2026-05-05 03:18 | 37.33357 | 121.64511 | 30098 ft | 485 kts | 290° |
| 2026-05-05 03:18 | 37.35419 | 121.56448 | 30078 ft | 486 kts | 289° |
| 2026-05-05 03:19 | 37.38500 | 121.44322 | 30074 ft | 486 kts | 290° |
| 2026-05-05 03:19 | 37.40541 | 121.36252 | 30061 ft | 487 kts | 290° |
| 2026-05-05 03:20 | 37.42580 | 121.28152 | 30057 ft | 487 kts | 289° |
| 2026-05-05 03:20 | 37.44619 | 121.20019 | 30059 ft | 487 kts | 289° |
| 2026-05-05 03:21 | 37.46899 | 121.11988 | 30061 ft | 487 kts | 294° |
| 2026-05-05 03:21 | 37.49463 | 121.04127 | 30049 ft | 486 kts | 294° |
| 2026-05-05 03:22 | 37.52008 | 120.96226 | 30041 ft | 488 kts | 294° |
| 2026-05-05 03:22 | 37.54522 | 120.88351 | 30035 ft | 487 kts | 294° |
| 2026-05-05 03:23 | 37.57025 | 120.80463 | 30035 ft | 487 kts | 294° |
| 2026-05-05 03:23 | 37.59560 | 120.72502 | 30034 ft | 488 kts | 295° |
| 2026-05-05 03:24 | 37.62144 | 120.64677 | 30035 ft | 487 kts | 295° |
| 2026-05-05 03:24 | 37.64736 | 120.56802 | 30032 ft | 487 kts | 295° |
| 2026-05-05 03:25 | 37.67855 | 120.49295 | 30020 ft | 485 kts | 302° |
| 2026-05-05 03:25 | 37.71219 | 120.41944 | 30001 ft | 484 kts | 303° |
| 2026-05-05 03:26 | 37.74587 | 120.34563 | 29999 ft | 485 kts | 302° |
| 2026-05-05 03:26 | 37.77941 | 120.27187 | 29992 ft | 484 kts | 302° |
| 2026-05-05 03:27 | 37.81269 | 120.19848 | 29986 ft | 484 kts | 302° |
| 2026-05-05 03:27 | 37.84610 | 120.12460 | 29991 ft | 484 kts | 302° |
| 2026-05-05 03:28 | 37.87935 | 120.05092 | 29988 ft | 484 kts | 302° |
| 2026-05-05 03:28 | 37.91267 | 119.97692 | 29986 ft | 485 kts | 302° |
| 2026-05-05 03:29 | 37.94583 | 119.90308 | 29984 ft | 482 kts | 302° |
| 2026-05-05 03:29 | 37.97884 | 119.82940 | 29981 ft | 483 kts | 302° |
| 2026-05-05 03:30 | 38.01184 | 119.75559 | 29978 ft | 482 kts | 302° |
| 2026-05-05 03:30 | 38.04493 | 119.68140 | 29968 ft | 481 kts | 302° |
| 2026-05-05 03:31 | 38.07752 | 119.60816 | 29969 ft | 481 kts | 302° |
| 2026-05-05 03:31 | 38.11003 | 119.53381 | 29967 ft | 480 kts | 298° |
| 2026-05-05 03:32 | 38.13621 | 119.45588 | 29963 ft | 481 kts | 295° |
| 2026-05-05 03:32 | 38.16165 | 119.37770 | 29948 ft | 481 kts | 295° |
| 2026-05-05 03:33 | 38.18704 | 119.29949 | 29947 ft | 481 kts | 294° |
| 2026-05-05 03:33 | 38.21233 | 119.22143 | 29943 ft | 478 kts | 294° |
| 2026-05-05 03:34 | 38.23774 | 119.14278 | 29946 ft | 479 kts | 294° |
| 2026-05-05 03:34 | 38.26282 | 119.06494 | 29952 ft | 479 kts | 294° |
| 2026-05-05 03:35 | 38.28792 | 118.98684 | 29946 ft | 478 kts | 294° |
| 2026-05-05 03:35 | 38.31302 | 118.90852 | 29940 ft | 477 kts | 294° |
| 2026-05-05 03:36 | 38.33783 | 118.83088 | 29936 ft | 476 kts | 294° |
| 2026-05-05 03:36 | 38.36263 | 118.75307 | 29935 ft | 474 kts | 294° |
| 2026-05-05 03:37 | 38.38759 | 118.67499 | 29935 ft | 475 kts | 294° |
| 2026-05-05 03:37 | 38.41229 | 118.59755 | 29925 ft | 474 kts | 294° |
| 2026-05-05 03:38 | 38.43706 | 118.51970 | 29925 ft | 473 kts | 294° |
| 2026-05-05 03:38 | 38.46155 | 118.44249 | 29922 ft | 473 kts | 294° |
| 2026-05-05 03:39 | 38.48608 | 118.36491 | 29919 ft | 472 kts | 294° |
| 2026-05-05 03:39 | 38.51057 | 118.28720 | 29925 ft | 472 kts | 293° |
| 2026-05-05 03:40 | 38.53494 | 118.20964 | 29916 ft | 472 kts | 293° |
| 2026-05-05 03:40 | 38.55929 | 118.13192 | 29911 ft | 471 kts | 293° |
| 2026-05-05 03:41 | 38.58441 | 118.05476 | 29904 ft | 471 kts | 298° |
| 2026-05-05 03:41 | 38.62259 | 117.98756 | 29910 ft | 468 kts | 314° |
| 2026-05-05 03:42 | 38.66736 | 117.92771 | 29900 ft | 467 kts | 314° |
| 2026-05-05 03:42 | 38.71207 | 117.86806 | 29900 ft | 467 kts | 314° |
| 2026-05-05 03:43 | 38.75703 | 117.80789 | 29896 ft | 466 kts | 314° |
| 2026-05-05 03:43 | 38.80177 | 117.74789 | 29893 ft | 466 kts | 314° |
| 2026-05-05 03:44 | 38.84662 | 117.68762 | 29888 ft | 467 kts | 314° |
| 2026-05-05 03:44 | 38.89127 | 117.62749 | 29887 ft | 466 kts | 314° |
| 2026-05-05 03:45 | 38.93576 | 117.56745 | 29885 ft | 466 kts | 313° |
| 2026-05-05 03:45 | 38.98061 | 117.50681 | 29878 ft | 466 kts | 313° |
| 2026-05-05 03:46 | 39.02508 | 117.44656 | 29872 ft | 466 kts | 313° |
| 2026-05-05 03:46 | 39.06473 | 117.38162 | 29871 ft | 465 kts | 300° |
| 2026-05-05 03:47 | 39.08697 | 117.30306 | 30183 ft | 475 kts | 283° |
| 2026-05-05 03:47 | 39.09302 | 117.26152 | 30862 ft | 470 kts | 282° |
| 2026-05-05 03:47 | 39.09865 | 117.22086 | 31597 ft | 464 kts | 281° |
| 2026-05-05 03:48 | 39.10430 | 117.17953 | 31869 ft | 467 kts | 281° |
| 2026-05-05 03:48 | 39.11171 | 117.13900 | 31879 ft | 464 kts | 289° |
| 2026-05-05 03:48 | 39.14040 | 117.06596 | 31870 ft | 459 kts | 306° |
| 2026-05-05 03:49 | 39.18547 | 117.00827 | 31869 ft | 461 kts | 323° |
| 2026-05-05 03:49 | 39.24245 | 116.97168 | 31862 ft | 464 kts | 341° |
| 2026-05-05 03:50 | 39.30648 | 116.95561 | 31859 ft | 466 kts | 348° |
| 2026-05-05 03:50 | 39.37039 | 116.94273 | 31857 ft | 466 kts | 348° |
| 2026-05-05 03:51 | 39.43453 | 116.92968 | 31856 ft | 467 kts | 348° |
| 2026-05-05 03:51 | 39.49877 | 116.91653 | 31856 ft | 468 kts | 348° |
| 2026-05-05 03:52 | 39.56295 | 116.90335 | 31856 ft | 466 kts | 348° |
| 2026-05-05 03:52 | 39.62724 | 116.89009 | 31855 ft | 466 kts | 348° |
| 2026-05-05 03:53 | 39.69121 | 116.87688 | 31847 ft | 466 kts | 348° |
| 2026-05-05 03:53 | 39.75504 | 116.86365 | 31847 ft | 466 kts | 348° |
| 2026-05-05 03:54 | 39.81937 | 116.85038 | 31848 ft | 467 kts | 348° |
| 2026-05-05 03:54 | 39.88394 | 116.83758 | 31846 ft | 468 kts | 348° |
| 2026-05-05 03:55 | 39.94807 | 116.82484 | 31854 ft | 467 kts | 348° |
| 2026-05-05 03:55 | 40.01204 | 116.81210 | 31850 ft | 467 kts | 348° |
| 2026-05-05 03:56 | 40.07618 | 116.79930 | 31853 ft | 466 kts | 348° |
| 2026-05-05 03:56 | 40.14028 | 116.78647 | 31858 ft | 466 kts | 348° |
| 2026-05-05 03:57 | 40.20467 | 116.77354 | 31851 ft | 467 kts | 348° |
| 2026-05-05 03:57 | 40.26880 | 116.76066 | 31848 ft | 467 kts | 348° |
| 2026-05-05 03:58 | 40.33304 | 116.74651 | 31848 ft | 464 kts | 342° |
| 2026-05-05 03:58 | 40.39456 | 116.72244 | 31865 ft | 464 kts | 340° |
| 2026-05-05 03:59 | 40.45595 | 116.69757 | 31882 ft | 462 kts | 340° |
| 2026-05-05 03:59 | 40.51746 | 116.67262 | 31893 ft | 463 kts | 340° |
| 2026-05-05 04:00 | 40.57903 | 116.64763 | 31899 ft | 463 kts | 340° |
| 2026-05-05 04:00 | 40.64063 | 116.62259 | 31891 ft | 462 kts | 340° |
| 2026-05-05 04:01 | 40.70188 | 116.59764 | 31891 ft | 463 kts | 340° |
| 2026-05-05 04:01 | 40.76364 | 116.57273 | 31883 ft | 463 kts | 342° |
| 2026-05-05 04:02 | 40.82778 | 116.56181 | 31888 ft | 470 kts | 352° |
| 2026-05-05 04:02 | 40.89310 | 116.55583 | 31891 ft | 469 kts | 352° |
| 2026-05-05 04:03 | 40.95828 | 116.54982 | 31900 ft | 471 kts | 352° |
| 2026-05-05 04:03 | 41.02359 | 116.54378 | 31902 ft | 470 kts | 352° |
| 2026-05-05 04:04 | 41.08860 | 116.53770 | 31905 ft | 470 kts | 352° |
| 2026-05-05 04:04 | 41.15384 | 116.53161 | 31904 ft | 470 kts | 352° |
| 2026-05-05 04:05 | 41.21885 | 116.52329 | 31907 ft | 465 kts | 344° |
| 2026-05-05 04:05 | 41.27874 | 116.49402 | 31904 ft | 456 kts | 328° |
| 2026-05-05 04:06 | 41.33329 | 116.45152 | 31928 ft | 455 kts | 327° |
| 2026-05-05 04:06 | 41.38762 | 116.40856 | 31939 ft | 454 kts | 327° |
| 2026-05-05 04:07 | 41.44185 | 116.36561 | 31952 ft | 455 kts | 326° |
| 2026-05-05 04:07 | 41.49582 | 116.32278 | 31972 ft | 452 kts | 326° |
| 2026-05-05 04:08 | 41.54988 | 116.27978 | 31974 ft | 452 kts | 326° |
| 2026-05-05 04:08 | 41.60403 | 116.23663 | 31979 ft | 452 kts | 326° |
| 2026-05-05 04:09 | 41.65765 | 116.19380 | 31978 ft | 452 kts | 326° |
| 2026-05-05 04:09 | 41.71186 | 116.15045 | 31970 ft | 450 kts | 326° |
| 2026-05-05 04:10 | 41.76534 | 116.10757 | 31963 ft | 453 kts | 326° |
| 2026-05-05 04:10 | 41.81941 | 116.06415 | 31953 ft | 450 kts | 326° |
| 2026-05-05 04:11 | 41.87293 | 116.02107 | 31948 ft | 451 kts | 325° |
| 2026-05-05 04:11 | 41.92628 | 115.97715 | 31940 ft | 447 kts | 321° |
| 2026-05-05 04:12 | 41.96971 | 115.91891 | 31937 ft | 444 kts | 304° |
| 2026-05-05 04:12 | 42.00056 | 115.84800 | 31937 ft | 440 kts | 298° |
| 2026-05-05 04:13 | 42.02996 | 115.77588 | 31938 ft | 443 kts | 298° |
| 2026-05-05 04:13 | 42.05931 | 115.70353 | 31930 ft | 440 kts | 298° |
| 2026-05-05 04:14 | 42.08858 | 115.63109 | 31947 ft | 441 kts | 298° |
| 2026-05-05 04:14 | 42.11778 | 115.55860 | 31950 ft | 439 kts | 298° |
| 2026-05-05 04:15 | 42.14681 | 115.48633 | 31942 ft | 440 kts | 298° |
| 2026-05-05 04:15 | 42.17561 | 115.41440 | 31936 ft | 438 kts | 298° |
| 2026-05-05 04:16 | 42.20453 | 115.34200 | 31936 ft | 439 kts | 297° |
| 2026-05-05 04:16 | 42.22722 | 115.26575 | 31926 ft | 439 kts | 283° |
| 2026-05-05 04:17 | 42.23021 | 115.18411 | 31946 ft | 444 kts | 268° |
| 2026-05-05 04:17 | 42.22481 | 115.10088 | 31919 ft | 444 kts | 268° |
| 2026-05-05 04:18 | 42.21917 | 115.01833 | 31933 ft | 447 kts | 268° |
| 2026-05-05 04:18 | 42.21334 | 114.93483 | 31920 ft | 444 kts | 268° |
| 2026-05-05 04:19 | 42.20751 | 114.85243 | 31941 ft | 446 kts | 268° |
| 2026-05-05 04:19 | 42.20155 | 114.76922 | 31907 ft | 444 kts | 268° |
| 2026-05-05 04:20 | 42.19556 | 114.68658 | 31909 ft | 445 kts | 268° |
| 2026-05-05 04:20 | 42.18950 | 114.60378 | 31913 ft | 445 kts | 268° |
| 2026-05-05 04:21 | 42.18341 | 114.52145 | 31913 ft | 444 kts | 268° |
| 2026-05-05 04:21 | 42.17725 | 114.43903 | 31913 ft | 444 kts | 268° |
| 2026-05-05 04:22 | 42.17102 | 114.35648 | 31930 ft | 442 kts | 268° |
| 2026-05-05 04:22 | 42.16476 | 114.27428 | 31946 ft | 442 kts | 267° |
| 2026-05-05 04:23 | 42.15845 | 114.19224 | 31920 ft | 441 kts | 267° |
| 2026-05-05 04:23 | 42.15205 | 114.10985 | 31926 ft | 444 kts | 267° |
| 2026-05-05 04:24 | 42.14558 | 114.02728 | 31936 ft | 443 kts | 268° |
| 2026-05-05 04:25 | 42.13583 | 113.90437 | 31945 ft | 442 kts | 267° |
| 2026-05-05 04:25 | 42.12924 | 113.82217 | 31944 ft | 442 kts | 268° |
| 2026-05-05 04:26 | 42.12258 | 113.73991 | 31919 ft | 441 kts | 267° |
| 2026-05-05 04:26 | 42.11590 | 113.65809 | 31925 ft | 441 kts | 268° |
| 2026-05-05 04:27 | 42.10917 | 113.57637 | 31941 ft | 442 kts | 268° |
| 2026-05-05 04:27 | 42.10160 | 113.49432 | 31913 ft | 443 kts | 263° |
| 2026-05-05 04:28 | 42.08709 | 113.41391 | 31927 ft | 445 kts | 261° |
| 2026-05-05 04:28 | 42.07198 | 113.33348 | 31936 ft | 445 kts | 260° |
| 2026-05-05 04:29 | 42.05670 | 113.25254 | 31936 ft | 446 kts | 260° |
| 2026-05-05 04:29 | 42.04147 | 113.17224 | 31941 ft | 445 kts | 260° |
| 2026-05-05 04:30 | 42.02612 | 113.09152 | 31954 ft | 447 kts | 260° |
| 2026-05-05 04:30 | 42.01076 | 113.01105 | 31965 ft | 444 kts | 260° |
| 2026-05-05 04:31 | 41.99527 | 112.93022 | 31938 ft | 447 kts | 260° |
| 2026-05-05 04:31 | 41.97982 | 112.85003 | 31918 ft | 446 kts | 260° |
| 2026-05-05 04:32 | 41.96422 | 112.76933 | 31919 ft | 446 kts | 260° |
| 2026-05-05 04:32 | 41.94940 | 112.68903 | 31914 ft | 442 kts | 265° |
| 2026-05-05 04:33 | 41.94928 | 112.60742 | 31924 ft | 437 kts | 282° |
| 2026-05-05 04:33 | 41.96401 | 112.52911 | 31922 ft | 432 kts | 287° |
| 2026-05-05 04:34 | 41.97990 | 112.45136 | 31926 ft | 434 kts | 287° |
| 2026-05-05 04:34 | 41.99575 | 112.37322 | 31934 ft | 434 kts | 287° |
| 2026-05-05 04:35 | 42.01154 | 112.29510 | 31934 ft | 434 kts | 286° |
| 2026-05-05 04:35 | 42.02721 | 112.21715 | 31944 ft | 435 kts | 286° |
| 2026-05-05 04:36 | 42.04290 | 112.13876 | 31952 ft | 433 kts | 286° |
| 2026-05-05 04:36 | 42.05844 | 112.06083 | 31961 ft | 433 kts | 286° |
| 2026-05-05 04:37 | 42.07399 | 111.98255 | 31949 ft | 432 kts | 286° |
| 2026-05-05 04:37 | 42.08943 | 111.90444 | 31933 ft | 433 kts | 286° |
| 2026-05-05 04:38 | 42.10476 | 111.82666 | 31930 ft | 433 kts | 286° |
| 2026-05-05 04:38 | 42.12014 | 111.74834 | 31916 ft | 432 kts | 286° |
| 2026-05-05 04:39 | 42.13540 | 111.67030 | 31917 ft | 434 kts | 286° |
| 2026-05-05 04:39 | 42.15068 | 111.59177 | 31907 ft | 435 kts | 286° |
| 2026-05-05 04:40 | 42.16594 | 111.51311 | 31910 ft | 434 kts | 285° |
| 2026-05-05 04:40 | 42.18108 | 111.43477 | 31900 ft | 434 kts | 286° |
| 2026-05-05 04:41 | 42.19619 | 111.35621 | 31890 ft | 433 kts | 285° |
| 2026-05-05 04:41 | 42.20223 | 111.27586 | 31884 ft | 439 kts | 268° |
| 2026-05-05 04:42 | 42.19455 | 111.19402 | 31891 ft | 441 kts | 265° |
| 2026-05-05 04:42 | 42.18595 | 111.11233 | 31893 ft | 441 kts | 265° |
| 2026-05-05 04:43 | 42.17722 | 111.03064 | 31886 ft | 441 kts | 265° |
| 2026-05-05 04:43 | 42.16839 | 110.94891 | 31876 ft | 442 kts | 265° |
| 2026-05-05 04:44 | 42.15952 | 110.86747 | 31880 ft | 440 kts | 265° |
| 2026-05-05 04:44 | 42.15059 | 110.78613 | 31890 ft | 441 kts | 265° |
| 2026-05-05 04:45 | 42.14158 | 110.70467 | 31887 ft | 441 kts | 265° |
| 2026-05-05 04:45 | 42.13255 | 110.62358 | 31886 ft | 441 kts | 265° |
| 2026-05-05 04:46 | 42.12340 | 110.54198 | 31886 ft | 440 kts | 265° |
| 2026-05-05 04:46 | 42.11423 | 110.46065 | 31891 ft | 442 kts | 265° |
| 2026-05-05 04:47 | 42.10498 | 110.37927 | 31898 ft | 440 kts | 264° |
| 2026-05-05 04:47 | 42.09568 | 110.29785 | 31916 ft | 441 kts | 264° |
| 2026-05-05 04:48 | 42.08632 | 110.21654 | 31928 ft | 441 kts | 264° |
| 2026-05-05 04:48 | 42.07688 | 110.13499 | 31925 ft | 440 kts | 264° |
| 2026-05-05 04:49 | 42.06744 | 110.05403 | 31921 ft | 439 kts | 264° |
| 2026-05-05 04:49 | 42.05793 | 109.97296 | 31929 ft | 441 kts | 264° |
| 2026-05-05 04:50 | 42.04832 | 109.89156 | 31924 ft | 440 kts | 264° |
| 2026-05-05 04:50 | 42.03867 | 109.81027 | 31920 ft | 440 kts | 264° |
| 2026-05-05 04:51 | 42.02897 | 109.72916 | 31940 ft | 440 kts | 264° |
| 2026-05-05 04:51 | 42.01927 | 109.64844 | 31933 ft | 441 kts | 264° |
| 2026-05-05 04:52 | 42.00950 | 109.56767 | 31938 ft | 440 kts | 264° |
| 2026-05-05 04:52 | 41.99959 | 109.48631 | 31940 ft | 440 kts | 264° |
| 2026-05-05 04:53 | 41.98973 | 109.40580 | 31943 ft | 440 kts | 264° |
| 2026-05-05 04:53 | 41.97971 | 109.32453 | 31953 ft | 439 kts | 263° |
| 2026-05-05 04:54 | 41.96976 | 109.24420 | 31956 ft | 439 kts | 263° |
| 2026-05-05 04:54 | 41.95969 | 109.16341 | 31966 ft | 440 kts | 263° |
| 2026-05-05 04:55 | 41.94957 | 109.08275 | 31962 ft | 438 kts | 263° |
| 2026-05-05 04:55 | 41.93936 | 109.00183 | 31939 ft | 441 kts | 263° |
| 2026-05-05 04:56 | 41.92905 | 108.92059 | 31951 ft | 439 kts | 263° |
| 2026-05-05 04:56 | 41.91880 | 108.84033 | 31947 ft | 441 kts | 263° |
| 2026-05-05 04:57 | 41.90843 | 108.75954 | 31941 ft | 437 kts | 263° |
| 2026-05-05 04:57 | 41.89803 | 108.67900 | 31934 ft | 440 kts | 263° |
| 2026-05-05 04:58 | 41.88755 | 108.59831 | 31936 ft | 438 kts | 263° |
| 2026-05-05 04:58 | 41.87701 | 108.51762 | 31938 ft | 441 kts | 263° |
| 2026-05-05 04:59 | 41.86644 | 108.43716 | 31933 ft | 439 kts | 263° |
| 2026-05-05 04:59 | 41.85583 | 108.35685 | 31933 ft | 441 kts | 264° |
| 2026-05-05 05:00 | 41.84510 | 108.27613 | 31935 ft | 437 kts | 263° |
| 2026-05-05 05:00 | 41.83447 | 108.19648 | 31932 ft | 439 kts | 263° |
| 2026-05-05 05:01 | 41.82369 | 108.11626 | 31930 ft | 438 kts | 263° |
| 2026-05-05 05:01 | 41.81291 | 108.03648 | 31932 ft | 434 kts | 263° |
| 2026-05-05 05:02 | 41.80207 | 107.95659 | 31939 ft | 438 kts | 263° |
| 2026-05-05 05:02 | 41.79114 | 107.87655 | 31937 ft | 437 kts | 262° |
| 2026-05-05 05:03 | 41.78023 | 107.79713 | 31932 ft | 436 kts | 263° |
| 2026-05-05 05:03 | 41.76921 | 107.71722 | 31949 ft | 436 kts | 263° |
| 2026-05-05 05:04 | 41.75813 | 107.63741 | 31941 ft | 437 kts | 263° |
| 2026-05-05 05:04 | 41.74705 | 107.55796 | 31932 ft | 437 kts | 263° |
| 2026-05-05 05:05 | 41.73587 | 107.47831 | 31936 ft | 434 kts | 263° |
| 2026-05-05 05:05 | 41.72466 | 107.39870 | 31928 ft | 438 kts | 263° |
| 2026-05-05 05:06 | 41.71335 | 107.31895 | 31945 ft | 435 kts | 263° |
| 2026-05-05 05:06 | 41.70200 | 107.23927 | 31945 ft | 436 kts | 263° |
| 2026-05-05 05:07 | 41.69070 | 107.16040 | 31932 ft | 434 kts | 263° |
| 2026-05-05 05:07 | 41.67929 | 107.08112 | 31937 ft | 435 kts | 263° |
| 2026-05-05 05:08 | 41.66787 | 107.00217 | 31938 ft | 433 kts | 262° |
| 2026-05-05 05:08 | 41.65636 | 106.92298 | 31933 ft | 435 kts | 263° |
| 2026-05-05 05:09 | 41.64485 | 106.84431 | 31920 ft | 434 kts | 263° |
| 2026-05-05 05:09 | 41.63321 | 106.76499 | 31913 ft | 434 kts | 263° |
| 2026-05-05 05:10 | 41.62162 | 106.68642 | 31929 ft | 436 kts | 263° |
| 2026-05-05 05:10 | 41.60992 | 106.60767 | 31921 ft | 430 kts | 263° |
| 2026-05-05 05:11 | 41.59827 | 106.52942 | 31925 ft | 434 kts | 263° |
| 2026-05-05 05:11 | 41.58647 | 106.45074 | 31915 ft | 430 kts | 263° |
| 2026-05-05 05:12 | 41.57470 | 106.37251 | 31914 ft | 433 kts | 263° |
| 2026-05-05 05:12 | 41.56281 | 106.29395 | 31923 ft | 432 kts | 263° |
| 2026-05-05 05:13 | 41.55089 | 106.21549 | 31919 ft | 433 kts | 262° |
| 2026-05-05 05:13 | 41.53889 | 106.13704 | 31905 ft | 431 kts | 263° |
| 2026-05-05 05:14 | 41.52091 | 106.06065 | 31903 ft | 438 kts | 254° |
| 2026-05-05 05:14 | 41.49849 | 105.98500 | 31905 ft | 439 kts | 253° |
| 2026-05-05 05:15 | 41.47600 | 105.90992 | 31904 ft | 438 kts | 254° |
| 2026-05-05 05:15 | 41.45321 | 105.83433 | 31896 ft | 437 kts | 254° |
| 2026-05-05 05:16 | 41.43045 | 105.75916 | 31884 ft | 439 kts | 254° |
| 2026-05-05 05:16 | 41.40778 | 105.68461 | 31884 ft | 436 kts | 254° |
| 2026-05-05 05:17 | 41.38490 | 105.60959 | 31883 ft | 438 kts | 254° |
| 2026-05-05 05:17 | 41.36190 | 105.53534 | 31891 ft | 436 kts | 253° |
| 2026-05-05 05:18 | 41.33863 | 105.46043 | 31892 ft | 436 kts | 253° |
| 2026-05-05 05:18 | 41.31571 | 105.38688 | 31892 ft | 435 kts | 253° |
| 2026-05-05 05:19 | 41.29240 | 105.31226 | 31905 ft | 434 kts | 253° |
| 2026-05-05 05:19 | 41.26931 | 105.23851 | 31915 ft | 435 kts | 253° |
| 2026-05-05 05:20 | 41.24596 | 105.16417 | 31914 ft | 437 kts | 253° |
| 2026-05-05 05:20 | 41.22265 | 105.09016 | 31916 ft | 434 kts | 253° |
| 2026-05-05 05:21 | 41.19935 | 105.01637 | 31926 ft | 437 kts | 253° |
| 2026-05-05 05:21 | 41.17591 | 104.94234 | 31923 ft | 433 kts | 253° |
| 2026-05-05 05:22 | 41.15248 | 104.86852 | 31927 ft | 436 kts | 253° |
| 2026-05-05 05:22 | 41.12896 | 104.79467 | 31923 ft | 434 kts | 253° |
| 2026-05-05 05:23 | 41.10547 | 104.72109 | 31918 ft | 433 kts | 252° |
| 2026-05-05 05:23 | 41.08271 | 104.64794 | 31929 ft | 432 kts | 253° |
| 2026-05-05 05:24 | 41.06024 | 104.57383 | 31938 ft | 435 kts | 254° |
| 2026-05-05 05:24 | 41.03782 | 104.50034 | 31943 ft | 430 kts | 254° |
| 2026-05-05 05:25 | 41.01528 | 104.42661 | 31949 ft | 434 kts | 253° |
| 2026-05-05 05:25 | 40.99649 | 104.35158 | 31939 ft | 426 kts | 264° |
| 2026-05-05 05:26 | 40.99607 | 104.27410 | 31943 ft | 420 kts | 280° |
| 2026-05-05 05:26 | 41.01307 | 104.20084 | 31941 ft | 419 kts | 290° |
| 2026-05-05 05:27 | 41.03375 | 104.12924 | 31958 ft | 418 kts | 290° |
| 2026-05-05 05:27 | 41.06478 | 104.02138 | 31944 ft | 417 kts | 290° |
| 2026-05-05 05:28 | 41.08523 | 103.94997 | 31944 ft | 418 kts | 290° |
| 2026-05-05 05:28 | 41.10571 | 103.87822 | 31948 ft | 418 kts | 290° |
| 2026-05-05 05:29 | 41.12627 | 103.80599 | 31928 ft | 417 kts | 290° |
| 2026-05-05 05:29 | 41.14656 | 103.73452 | 31945 ft | 418 kts | 290° |
| 2026-05-05 05:30 | 41.16699 | 103.66236 | 31931 ft | 417 kts | 290° |
| 2026-05-05 05:30 | 41.18718 | 103.59084 | 31921 ft | 416 kts | 289° |
| 2026-05-05 05:31 | 41.20747 | 103.51874 | 31908 ft | 418 kts | 289° |
| 2026-05-05 05:31 | 41.22783 | 103.44618 | 31932 ft | 419 kts | 289° |
| 2026-05-05 05:32 | 41.24800 | 103.37413 | 31910 ft | 416 kts | 289° |
| 2026-05-05 05:32 | 41.26819 | 103.30180 | 31936 ft | 420 kts | 289° |
| 2026-05-05 05:33 | 41.28828 | 103.22957 | 31939 ft | 416 kts | 289° |
| 2026-05-05 05:33 | 41.30831 | 103.15741 | 31940 ft | 418 kts | 289° |
| 2026-05-05 05:34 | 41.32827 | 103.08528 | 31930 ft | 416 kts | 289° |
| 2026-05-05 05:34 | 41.34826 | 103.01279 | 31923 ft | 418 kts | 289° |
| 2026-05-05 05:35 | 41.36865 | 102.94051 | 31923 ft | 417 kts | 289° |
| 2026-05-05 05:35 | 41.38948 | 102.86863 | 31927 ft | 420 kts | 289° |
| 2026-05-05 05:36 | 41.41038 | 102.79617 | 31919 ft | 418 kts | 289° |
| 2026-05-05 05:36 | 41.43106 | 102.72420 | 31915 ft | 418 kts | 290° |
| 2026-05-05 05:37 | 41.45183 | 102.65197 | 31909 ft | 420 kts | 290° |
| 2026-05-05 05:37 | 41.47278 | 102.57917 | 31896 ft | 419 kts | 289° |
| 2026-05-05 05:38 | 41.49354 | 102.50678 | 31898 ft | 420 kts | 290° |
| 2026-05-05 05:38 | 41.51435 | 102.43404 | 31886 ft | 420 kts | 289° |
| 2026-05-05 05:39 | 41.53507 | 102.36137 | 31891 ft | 420 kts | 289° |
| 2026-05-05 05:39 | 41.55569 | 102.28883 | 31896 ft | 420 kts | 288° |
| 2026-05-05 05:40 | 41.57633 | 102.21605 | 31900 ft | 422 kts | 289° |
| 2026-05-05 05:40 | 41.59689 | 102.14330 | 31885 ft | 420 kts | 289° |
| 2026-05-05 05:41 | 41.61754 | 102.07004 | 31887 ft | 421 kts | 288° |
| 2026-05-05 05:41 | 41.63802 | 101.99717 | 31877 ft | 420 kts | 289° |
| 2026-05-05 05:42 | 41.65855 | 101.92390 | 31863 ft | 422 kts | 288° |
| 2026-05-05 05:42 | 41.67910 | 101.85033 | 31854 ft | 424 kts | 288° |
| 2026-05-05 05:43 | 41.69964 | 101.77663 | 31869 ft | 423 kts | 288° |
| 2026-05-05 05:43 | 41.72002 | 101.70326 | 31875 ft | 420 kts | 288° |
| 2026-05-05 05:44 | 41.74025 | 101.63019 | 31875 ft | 424 kts | 289° |
| 2026-05-05 05:44 | 41.76062 | 101.55643 | 31882 ft | 425 kts | 288° |
| 2026-05-05 05:45 | 41.78102 | 101.48233 | 31869 ft | 422 kts | 288° |
| 2026-05-05 05:45 | 41.80138 | 101.40816 | 31872 ft | 425 kts | 289° |
| 2026-05-05 05:46 | 41.82160 | 101.33431 | 31883 ft | 425 kts | 287° |
| 2026-05-05 05:46 | 41.84195 | 101.25959 | 31878 ft | 424 kts | 287° |
| 2026-05-05 05:47 | 41.85177 | 101.18263 | 31892 ft | 425 kts | 273° |
| 2026-05-05 05:47 | 41.85400 | 101.10425 | 31878 ft | 422 kts | 272° |
| 2026-05-05 05:48 | 41.85600 | 101.02531 | 31871 ft | 424 kts | 272° |
| 2026-05-05 05:48 | 41.85790 | 100.94654 | 31868 ft | 423 kts | 272° |
| 2026-05-05 05:49 | 41.85972 | 100.86781 | 31868 ft | 425 kts | 272° |
| 2026-05-05 05:49 | 41.86150 | 100.78875 | 31874 ft | 422 kts | 272° |
| 2026-05-05 05:50 | 41.86317 | 100.71042 | 31886 ft | 423 kts | 272° |
| 2026-05-05 05:50 | 41.86481 | 100.63168 | 31891 ft | 424 kts | 272° |
| 2026-05-05 05:51 | 41.86651 | 100.55297 | 31899 ft | 422 kts | 272° |
| 2026-05-05 05:51 | 41.86795 | 100.47470 | 31891 ft | 422 kts | 271° |
| 2026-05-05 05:52 | 41.86941 | 100.39632 | 31891 ft | 420 kts | 272° |
| 2026-05-05 05:52 | 41.87080 | 100.31843 | 31910 ft | 421 kts | 271° |
| 2026-05-05 05:53 | 41.87210 | 100.23987 | 31897 ft | 422 kts | 271° |
| 2026-05-05 05:53 | 41.87349 | 100.16157 | 31891 ft | 421 kts | 270° |
| 2026-05-05 05:54 | 41.87479 | 100.08291 | 31896 ft | 421 kts | 271° |
| 2026-05-05 05:54 | 41.87606 | 100.00465 | 31905 ft | 422 kts | 271° |
| 2026-05-05 05:55 | 41.87711 | 99.92567 | 31905 ft | 422 kts | 271° |
| 2026-05-05 05:55 | 41.87810 | 99.84736 | 31903 ft | 420 kts | 271° |
| 2026-05-05 05:56 | 41.87911 | 99.76917 | 31900 ft | 422 kts | 271° |
| 2026-05-05 05:56 | 41.88021 | 99.69063 | 31920 ft | 420 kts | 271° |
| 2026-05-05 05:57 | 41.88113 | 99.61182 | 31938 ft | 424 kts | 270° |
| 2026-05-05 05:57 | 41.88208 | 99.53359 | 31942 ft | 422 kts | 271° |
| 2026-05-05 05:58 | 41.88300 | 99.45504 | 31958 ft | 423 kts | 270° |
| 2026-05-05 05:58 | 41.88379 | 99.37605 | 31982 ft | 421 kts | 270° |
| 2026-05-05 05:59 | 41.88440 | 99.29752 | 31992 ft | 426 kts | 270° |
| 2026-05-05 05:59 | 41.88518 | 99.21886 | 32010 ft | 420 kts | 270° |
| 2026-05-05 06:00 | 41.88581 | 99.13976 | 32005 ft | 427 kts | 270° |
| 2026-05-05 06:00 | 41.88633 | 99.06094 | 32017 ft | 421 kts | 270° |
| 2026-05-05 06:01 | 41.88677 | 98.98217 | 32022 ft | 424 kts | 270° |
| 2026-05-05 06:01 | 41.88724 | 98.90327 | 32033 ft | 424 kts | 270° |
| 2026-05-05 06:02 | 41.88761 | 98.82408 | 32046 ft | 425 kts | 270° |
| 2026-05-05 06:02 | 41.88809 | 98.74503 | 32043 ft | 424 kts | 270° |
| 2026-05-05 06:03 | 41.88838 | 98.66644 | 32053 ft | 423 kts | 270° |
| 2026-05-05 06:03 | 41.88854 | 98.58750 | 32068 ft | 424 kts | 270° |
| 2026-05-05 06:04 | 41.88873 | 98.50912 | 32083 ft | 423 kts | 270° |
| 2026-05-05 06:04 | 41.88887 | 98.43009 | 32079 ft | 422 kts | 270° |
| 2026-05-05 06:05 | 41.88895 | 98.35161 | 32082 ft | 425 kts | 269° |
| 2026-05-05 06:05 | 41.88898 | 98.27257 | 32103 ft | 425 kts | 269° |
| 2026-05-05 06:06 | 41.88895 | 98.19334 | 32102 ft | 423 kts | 269° |
| 2026-05-05 06:06 | 41.88887 | 98.11465 | 32127 ft | 426 kts | 269° |
| 2026-05-05 06:07 | 41.88874 | 98.03525 | 32108 ft | 425 kts | 269° |
| 2026-05-05 06:07 | 41.88855 | 97.95543 | 32106 ft | 428 kts | 269° |
| 2026-05-05 06:08 | 41.88830 | 97.87652 | 32104 ft | 428 kts | 269° |
| 2026-05-05 06:08 | 41.88800 | 97.79683 | 32106 ft | 427 kts | 269° |
| 2026-05-05 06:09 | 41.88766 | 97.71728 | 32097 ft | 425 kts | 269° |
| 2026-05-05 06:09 | 41.88725 | 97.63856 | 32117 ft | 427 kts | 269° |
| 2026-05-05 06:10 | 41.88677 | 97.55847 | 32113 ft | 427 kts | 269° |
| 2026-05-05 06:10 | 41.88626 | 97.47921 | 32116 ft | 425 kts | 268° |
| 2026-05-05 06:11 | 41.88568 | 97.39968 | 32123 ft | 429 kts | 269° |
| 2026-05-05 06:11 | 41.88506 | 97.32050 | 32137 ft | 425 kts | 268° |
| 2026-05-05 06:12 | 41.88437 | 97.24081 | 32137 ft | 429 kts | 268° |
| 2026-05-05 06:12 | 41.88364 | 97.16152 | 32146 ft | 426 kts | 268° |
| 2026-05-05 06:13 | 41.88284 | 97.08125 | 32148 ft | 430 kts | 268° |
| 2026-05-05 06:13 | 41.88199 | 97.00135 | 32151 ft | 429 kts | 268° |
| 2026-05-05 06:14 | 41.88108 | 96.92189 | 32146 ft | 431 kts | 268° |
| 2026-05-05 06:14 | 41.88012 | 96.84198 | 32152 ft | 429 kts | 268° |
| 2026-05-05 06:15 | 41.87910 | 96.76221 | 32155 ft | 429 kts | 268° |
| 2026-05-05 06:15 | 41.87802 | 96.68228 | 32165 ft | 431 kts | 268° |
| 2026-05-05 06:16 | 41.87688 | 96.60179 | 32165 ft | 429 kts | 268° |
| 2026-05-05 06:16 | 41.87571 | 96.52256 | 32171 ft | 428 kts | 268° |
| 2026-05-05 06:17 | 41.87450 | 96.44255 | 32185 ft | 430 kts | 268° |
| 2026-05-05 06:17 | 41.87313 | 96.36269 | 32184 ft | 428 kts | 268° |
| 2026-05-05 06:18 | 41.87183 | 96.28290 | 32221 ft | 433 kts | 267° |
| 2026-05-05 06:18 | 41.87075 | 96.20280 | 32211 ft | 428 kts | 268° |
| 2026-05-05 06:19 | 41.87049 | 96.12299 | 32219 ft | 430 kts | 268° |
| 2026-05-05 06:19 | 41.87020 | 96.04284 | 32221 ft | 430 kts | 268° |
| 2026-05-05 06:20 | 41.86956 | 95.96298 | 32221 ft | 430 kts | 268° |
| 2026-05-05 06:20 | 41.86897 | 95.88277 | 32223 ft | 431 kts | 267° |
| 2026-05-05 06:21 | 41.86833 | 95.80265 | 32218 ft | 432 kts | 268° |
| 2026-05-05 06:21 | 41.86759 | 95.72211 | 32207 ft | 431 kts | 268° |
| 2026-05-05 06:22 | 41.86692 | 95.64233 | 32205 ft | 431 kts | 267° |
| 2026-05-05 06:22 | 41.86599 | 95.56182 | 32191 ft | 430 kts | 267° |
| 2026-05-05 06:23 | 41.86515 | 95.48206 | 32188 ft | 432 kts | 268° |
| 2026-05-05 06:23 | 41.86426 | 95.40198 | 32164 ft | 427 kts | 268° |
| 2026-05-05 06:24 | 41.86330 | 95.32246 | 32177 ft | 429 kts | 266° |
| 2026-05-05 06:24 | 41.86560 | 95.24230 | 32165 ft | 432 kts | 277° |
| 2026-05-05 06:25 | 41.88667 | 95.16647 | 32158 ft | 445 kts | 295° |
| 2026-05-05 06:25 | 41.92518 | 95.10140 | 32160 ft | 448 kts | 304° |
| 2026-05-05 06:26 | 41.96669 | 95.03858 | 32131 ft | 454 kts | 305° |
| 2026-05-05 06:26 | 42.00838 | 94.97519 | 32118 ft | 450 kts | 304° |
| 2026-05-05 06:27 | 42.07035 | 94.88037 | 32111 ft | 450 kts | 305° |
| 2026-05-05 06:28 | 42.11142 | 94.81723 | 32087 ft | 449 kts | 304° |
| 2026-05-05 06:28 | 42.15244 | 94.75399 | 32084 ft | 449 kts | 304° |
| 2026-05-05 06:29 | 42.19347 | 94.69061 | 32074 ft | 450 kts | 305° |
| 2026-05-05 06:29 | 42.23458 | 94.62723 | 32075 ft | 447 kts | 304° |
| 2026-05-05 06:30 | 42.27549 | 94.56384 | 32073 ft | 450 kts | 304° |
| 2026-05-05 06:30 | 42.31615 | 94.50052 | 32058 ft | 444 kts | 304° |
| 2026-05-05 06:31 | 42.35669 | 94.43718 | 32072 ft | 448 kts | 305° |
| 2026-05-05 06:31 | 42.39730 | 94.37370 | 32059 ft | 445 kts | 305° |
| 2026-05-05 06:32 | 42.43785 | 94.31031 | 32075 ft | 446 kts | 304° |
| 2026-05-05 06:32 | 42.47809 | 94.24729 | 32067 ft | 443 kts | 304° |
| 2026-05-05 06:33 | 42.51846 | 94.18386 | 32068 ft | 444 kts | 304° |
| 2026-05-05 06:33 | 42.55866 | 94.12054 | 32073 ft | 447 kts | 304° |
| 2026-05-05 06:34 | 42.59901 | 94.05700 | 32071 ft | 441 kts | 304° |
| 2026-05-05 06:34 | 42.63921 | 93.99345 | 32060 ft | 448 kts | 304° |
| 2026-05-05 06:35 | 42.67938 | 93.92976 | 32073 ft | 443 kts | 304° |
| 2026-05-05 06:35 | 42.71967 | 93.86571 | 32069 ft | 446 kts | 304° |
| 2026-05-05 06:36 | 42.75972 | 93.80194 | 32047 ft | 445 kts | 304° |
| 2026-05-05 06:36 | 42.79986 | 93.73786 | 32048 ft | 445 kts | 304° |
| 2026-05-05 06:37 | 42.83765 | 93.67148 | 32042 ft | 441 kts | 295° |
| 2026-05-05 06:37 | 42.86117 | 93.59538 | 32032 ft | 433 kts | 286° |
| 2026-05-05 06:38 | 42.88067 | 93.51849 | 32032 ft | 432 kts | 285° |
| 2026-05-05 06:38 | 42.90009 | 93.44106 | 32015 ft | 434 kts | 285° |
| 2026-05-05 06:39 | 42.91952 | 93.36314 | 32011 ft | 433 kts | 285° |
| 2026-05-05 06:39 | 42.93886 | 93.28520 | 32017 ft | 433 kts | 284° |
| 2026-05-05 06:40 | 42.95812 | 93.20724 | 32023 ft | 435 kts | 285° |
| 2026-05-05 06:40 | 42.97731 | 93.12927 | 31996 ft | 435 kts | 285° |
| 2026-05-05 06:41 | 42.99642 | 93.05138 | 32001 ft | 435 kts | 284° |
| 2026-05-05 06:41 | 43.01562 | 92.97280 | 31987 ft | 437 kts | 285° |
| 2026-05-05 06:42 | 43.03469 | 92.89455 | 31990 ft | 436 kts | 284° |
| 2026-05-05 06:42 | 43.05385 | 92.81561 | 32029 ft | 437 kts | 285° |
| 2026-05-05 06:43 | 43.07288 | 92.73697 | 32021 ft | 437 kts | 284° |
| 2026-05-05 06:43 | 43.09190 | 92.65815 | 32026 ft | 436 kts | 285° |
| 2026-05-05 06:44 | 43.11075 | 92.57964 | 32018 ft | 437 kts | 284° |
| 2026-05-05 06:44 | 43.12974 | 92.50029 | 32016 ft | 440 kts | 284° |
| 2026-05-05 06:45 | 43.14870 | 92.42082 | 32009 ft | 438 kts | 285° |
| 2026-05-05 06:45 | 43.16745 | 92.34199 | 32028 ft | 442 kts | 284° |
| 2026-05-05 06:46 | 43.18635 | 92.26219 | 32044 ft | 439 kts | 284° |
| 2026-05-05 06:46 | 43.20506 | 92.18291 | 32049 ft | 440 kts | 284° |
| 2026-05-05 06:47 | 43.22381 | 92.10320 | 32053 ft | 441 kts | 284° |
| 2026-05-05 06:47 | 43.24257 | 92.02315 | 32047 ft | 441 kts | 284° |
| 2026-05-05 06:48 | 43.26114 | 91.94365 | 32065 ft | 441 kts | 284° |
| 2026-05-05 06:48 | 43.27976 | 91.86363 | 32079 ft | 441 kts | 284° |
| 2026-05-05 06:49 | 43.29835 | 91.78347 | 32066 ft | 443 kts | 284° |
| 2026-05-05 06:49 | 43.31688 | 91.70328 | 32067 ft | 440 kts | 284° |
| 2026-05-05 06:50 | 43.33530 | 91.62327 | 32071 ft | 443 kts | 284° |
| 2026-05-05 06:50 | 43.35372 | 91.54294 | 32113 ft | 442 kts | 284° |
| 2026-05-05 06:51 | 43.37220 | 91.46207 | 32091 ft | 444 kts | 284° |
| 2026-05-05 06:51 | 43.39065 | 91.38100 | 32090 ft | 445 kts | 284° |
| 2026-05-05 06:52 | 43.40889 | 91.30061 | 32123 ft | 443 kts | 284° |
| 2026-05-05 06:52 | 43.42715 | 91.21957 | 32133 ft | 444 kts | 284° |
| 2026-05-05 06:53 | 43.44530 | 91.13880 | 32148 ft | 445 kts | 284° |
| 2026-05-05 06:53 | 43.46350 | 91.05746 | 32150 ft | 443 kts | 284° |
| 2026-05-05 06:54 | 43.48154 | 90.97655 | 32158 ft | 446 kts | 284° |
| 2026-05-05 06:54 | 43.49959 | 90.89530 | 32155 ft | 446 kts | 284° |
| 2026-05-05 06:55 | 43.51756 | 90.81410 | 32161 ft | 444 kts | 284° |
| 2026-05-05 06:55 | 43.53551 | 90.73267 | 32171 ft | 445 kts | 284° |
| 2026-05-05 06:56 | 43.55332 | 90.65160 | 32171 ft | 443 kts | 284° |
| 2026-05-05 06:56 | 43.57130 | 90.56940 | 32158 ft | 447 kts | 284° |
| 2026-05-05 06:57 | 43.58905 | 90.48795 | 32161 ft | 445 kts | 284° |
| 2026-05-05 06:57 | 43.60668 | 90.40676 | 32169 ft | 445 kts | 284° |
| 2026-05-05 06:58 | 43.62439 | 90.32490 | 32177 ft | 445 kts | 283° |
| 2026-05-05 06:58 | 43.64195 | 90.24336 | 32189 ft | 445 kts | 283° |
| 2026-05-05 06:59 | 43.65945 | 90.16185 | 32193 ft | 445 kts | 284° |
| 2026-05-05 06:59 | 43.67693 | 90.08007 | 32190 ft | 445 kts | 283° |
| 2026-05-05 07:00 | 43.69561 | 89.99739 | 32725 ft | 451 kts | 284° |
| 2026-05-05 07:00 | 43.70494 | 89.95673 | 33484 ft | 444 kts | 284° |
| 2026-05-05 07:00 | 43.71412 | 89.91657 | 34070 ft | 441 kts | 284° |
| 2026-05-05 07:00 | 43.72339 | 89.87585 | 34173 ft | 444 kts | 284° |
| 2026-05-05 07:01 | 43.73262 | 89.83520 | 34182 ft | 443 kts | 284° |
| 2026-05-05 07:01 | 43.75091 | 89.75434 | 34178 ft | 441 kts | 284° |
| 2026-05-05 07:02 | 43.76908 | 89.67363 | 34185 ft | 442 kts | 284° |
| 2026-05-05 07:02 | 43.78714 | 89.59312 | 34183 ft | 440 kts | 284° |
| 2026-05-05 07:03 | 43.80521 | 89.51226 | 34169 ft | 441 kts | 284° |
| 2026-05-05 07:03 | 43.82392 | 89.43137 | 34183 ft | 441 kts | 285° |
| 2026-05-05 07:04 | 43.84250 | 89.35124 | 34186 ft | 440 kts | 285° |
| 2026-05-05 07:04 | 43.86106 | 89.27079 | 34194 ft | 440 kts | 284° |
| 2026-05-05 07:05 | 43.87961 | 89.19004 | 34195 ft | 439 kts | 284° |
| 2026-05-05 07:05 | 43.89793 | 89.10994 | 34218 ft | 438 kts | 284° |
| 2026-05-05 07:06 | 43.91631 | 89.02927 | 34196 ft | 440 kts | 284° |
| 2026-05-05 07:06 | 43.93467 | 88.94843 | 34215 ft | 439 kts | 284° |
| 2026-05-05 07:07 | 43.95283 | 88.86809 | 34215 ft | 440 kts | 284° |
| 2026-05-05 07:07 | 43.97138 | 88.78696 | 34197 ft | 441 kts | 286° |
| 2026-05-05 07:08 | 43.99194 | 88.70686 | 34232 ft | 441 kts | 287° |
| 2026-05-05 07:08 | 44.01239 | 88.62686 | 34213 ft | 441 kts | 287° |
| 2026-05-05 07:09 | 44.03271 | 88.54685 | 34232 ft | 441 kts | 287° |
| 2026-05-05 07:09 | 44.05296 | 88.46667 | 34234 ft | 441 kts | 287° |
| 2026-05-05 07:10 | 44.07310 | 88.38657 | 34235 ft | 441 kts | 287° |
| 2026-05-05 07:10 | 44.09329 | 88.30592 | 34242 ft | 441 kts | 286° |
| 2026-05-05 07:11 | 44.11329 | 88.22575 | 34242 ft | 441 kts | 286° |
| 2026-05-05 07:11 | 44.13332 | 88.14517 | 34226 ft | 441 kts | 286° |
| 2026-05-05 07:12 | 44.14919 | 88.06305 | 34217 ft | 437 kts | 275° |
| 2026-05-05 07:12 | 44.14680 | 87.97980 | 34212 ft | 436 kts | 258° |
| 2026-05-05 07:13 | 44.12551 | 87.90125 | 34212 ft | 437 kts | 242° |
| 2026-05-05 07:13 | 44.09050 | 87.83193 | 34206 ft | 441 kts | 236° |
| 2026-05-05 07:14 | 44.05389 | 87.76383 | 34207 ft | 439 kts | 236° |
| 2026-05-05 07:14 | 44.01712 | 87.69598 | 34203 ft | 443 kts | 236° |
| 2026-05-05 07:15 | 43.98026 | 87.62831 | 34180 ft | 441 kts | 236° |
| 2026-05-05 07:15 | 43.94302 | 87.56020 | 34192 ft | 442 kts | 236° |
| 2026-05-05 07:16 | 43.90608 | 87.49253 | 34184 ft | 441 kts | 238° |
| 2026-05-05 07:16 | 43.87328 | 87.42129 | 34196 ft | 443 kts | 240° |
| 2026-05-05 07:17 | 43.84032 | 87.34916 | 34196 ft | 441 kts | 239° |
| 2026-05-05 07:17 | 43.80735 | 87.27769 | 34217 ft | 444 kts | 240° |
| 2026-05-05 07:18 | 43.77409 | 87.20606 | 34228 ft | 443 kts | 239° |
| 2026-05-05 07:18 | 43.74082 | 87.13469 | 34248 ft | 445 kts | 239° |
| 2026-05-05 07:19 | 43.70737 | 87.06331 | 34292 ft | 444 kts | 240° |
| 2026-05-05 07:19 | 43.67380 | 86.99191 | 34299 ft | 445 kts | 239° |
| 2026-05-05 07:20 | 43.64017 | 86.92056 | 34334 ft | 444 kts | 239° |
| 2026-05-05 07:20 | 43.60641 | 86.84912 | 34327 ft | 444 kts | 239° |
| 2026-05-05 07:21 | 43.57348 | 86.77729 | 34367 ft | 443 kts | 245° |
| 2026-05-05 07:21 | 43.55444 | 86.69724 | 34368 ft | 440 kts | 262° |
| 2026-05-05 07:22 | 43.55494 | 86.61365 | 34357 ft | 441 kts | 278° |
| 2026-05-05 07:22 | 43.56437 | 86.53078 | 34338 ft | 441 kts | 278° |
| 2026-05-05 07:23 | 43.57371 | 86.44750 | 34342 ft | 442 kts | 278° |
| 2026-05-05 07:23 | 43.58268 | 86.36356 | 34347 ft | 442 kts | 278° |
| 2026-05-05 07:24 | 43.59152 | 86.28006 | 34348 ft | 441 kts | 277° |
| 2026-05-05 07:24 | 43.60028 | 86.19668 | 34331 ft | 443 kts | 277° |
| 2026-05-05 07:25 | 43.60905 | 86.11274 | 34342 ft | 442 kts | 278° |
| 2026-05-05 07:25 | 43.61795 | 86.02902 | 34343 ft | 442 kts | 278° |
| 2026-05-05 07:26 | 43.62709 | 85.94544 | 34337 ft | 442 kts | 278° |
| 2026-05-05 07:26 | 43.63618 | 85.86146 | 34340 ft | 442 kts | 278° |
| 2026-05-05 07:27 | 43.64388 | 85.77755 | 34354 ft | 444 kts | 276° |
| 2026-05-05 07:27 | 43.65037 | 85.69323 | 34353 ft | 443 kts | 276° |
| 2026-05-05 07:28 | 43.65690 | 85.60884 | 34355 ft | 443 kts | 276° |
| 2026-05-05 07:28 | 43.66344 | 85.52415 | 34352 ft | 443 kts | 276° |
| 2026-05-05 07:29 | 43.66992 | 85.43972 | 34354 ft | 444 kts | 276° |
| 2026-05-05 07:29 | 43.67637 | 85.35513 | 34347 ft | 443 kts | 276° |
| 2026-05-05 07:30 | 43.68274 | 85.27069 | 34355 ft | 445 kts | 276° |
| 2026-05-05 07:30 | 43.68795 | 85.14369 | 34361 ft | 446 kts | 264° |
| 2026-05-05 07:31 | 43.67106 | 85.06086 | 34368 ft | 452 kts | 247° |
| 2026-05-05 07:31 | 43.63895 | 84.98657 | 34385 ft | 457 kts | 240° |
| 2026-05-05 07:32 | 43.60463 | 84.91280 | 34394 ft | 455 kts | 240° |
| 2026-05-05 07:32 | 43.57037 | 84.83952 | 34400 ft | 456 kts | 240° |
| 2026-05-05 07:33 | 43.53614 | 84.76658 | 34396 ft | 455 kts | 240° |
| 2026-05-05 07:33 | 43.50187 | 84.69376 | 34406 ft | 456 kts | 240° |
| 2026-05-05 07:34 | 43.46742 | 84.62080 | 34392 ft | 456 kts | 240° |
| 2026-05-05 07:34 | 43.43281 | 84.54768 | 34400 ft | 457 kts | 240° |
| 2026-05-05 07:35 | 43.39813 | 84.47459 | 34429 ft | 456 kts | 240° |
| 2026-05-05 07:35 | 43.36717 | 84.39926 | 34431 ft | 453 kts | 251° |
| 2026-05-05 07:36 | 43.35354 | 84.31583 | 34446 ft | 449 kts | 268° |
| 2026-05-05 07:36 | 43.35755 | 84.23055 | 34456 ft | 449 kts | 277° |
| 2026-05-05 07:37 | 43.36541 | 84.14555 | 34468 ft | 448 kts | 277° |
| 2026-05-05 07:37 | 43.37303 | 84.06135 | 34481 ft | 448 kts | 277° |
| 2026-05-05 07:38 | 43.38059 | 83.97648 | 34495 ft | 448 kts | 277° |
| 2026-05-05 07:38 | 43.38806 | 83.89159 | 34495 ft | 449 kts | 277° |
| 2026-05-05 07:39 | 43.39545 | 83.80662 | 34501 ft | 451 kts | 277° |
| 2026-05-05 07:39 | 43.40282 | 83.72100 | 34485 ft | 450 kts | 277° |
| 2026-05-05 07:40 | 43.41012 | 83.63554 | 34485 ft | 450 kts | 277° |
| 2026-05-05 07:40 | 43.41732 | 83.55034 | 34489 ft | 451 kts | 277° |
| 2026-05-05 07:41 | 43.42449 | 83.46481 | 34476 ft | 451 kts | 277° |
| 2026-05-05 07:41 | 43.43158 | 83.37935 | 34466 ft | 451 kts | 277° |
| 2026-05-05 07:42 | 43.43556 | 83.29340 | 34472 ft | 454 kts | 273° |
| 2026-05-05 07:42 | 43.43842 | 83.20677 | 34465 ft | 452 kts | 273° |
| 2026-05-05 07:43 | 43.44136 | 83.12054 | 34460 ft | 453 kts | 273° |
| 2026-05-05 07:43 | 43.44432 | 83.03445 | 34453 ft | 453 kts | 274° |
| 2026-05-05 07:44 | 43.44727 | 82.94775 | 34443 ft | 454 kts | 273° |
| 2026-05-05 07:44 | 43.45018 | 82.86144 | 34428 ft | 456 kts | 274° |
| 2026-05-05 07:45 | 43.45305 | 82.77451 | 34409 ft | 456 kts | 274° |
| 2026-05-05 07:45 | 43.45586 | 82.68734 | 34388 ft | 456 kts | 274° |
| 2026-05-05 07:46 | 43.45860 | 82.60067 | 34369 ft | 456 kts | 274° |
| 2026-05-05 07:46 | 43.46129 | 82.51347 | 34364 ft | 456 kts | 274° |
| 2026-05-05 07:47 | 43.46392 | 82.42609 | 34358 ft | 457 kts | 274° |
| 2026-05-05 07:47 | 43.46646 | 82.33897 | 34339 ft | 458 kts | 273° |
| 2026-05-05 07:48 | 43.46895 | 82.25169 | 34336 ft | 457 kts | 273° |
| 2026-05-05 07:48 | 43.47137 | 82.16452 | 34318 ft | 459 kts | 273° |
| 2026-05-05 07:49 | 43.47374 | 82.07684 | 34315 ft | 459 kts | 273° |
| 2026-05-05 07:49 | 43.47603 | 81.98977 | 34304 ft | 460 kts | 273° |
| 2026-05-05 07:50 | 43.47827 | 81.90183 | 34314 ft | 460 kts | 273° |
| 2026-05-05 07:50 | 43.48044 | 81.81411 | 34321 ft | 460 kts | 273° |
| 2026-05-05 07:51 | 43.48255 | 81.72604 | 34316 ft | 460 kts | 273° |
| 2026-05-05 07:51 | 43.48454 | 81.63823 | 34320 ft | 462 kts | 272° |
| 2026-05-05 07:52 | 43.48637 | 81.55003 | 34317 ft | 462 kts | 272° |
| 2026-05-05 07:52 | 43.48814 | 81.46207 | 34310 ft | 462 kts | 273° |
| 2026-05-05 07:53 | 43.48985 | 81.37418 | 34216 ft | 463 kts | 273° |
| 2026-05-05 07:53 | 43.49150 | 81.28561 | 34213 ft | 463 kts | 272° |
| 2026-05-05 07:54 | 43.49308 | 81.19740 | 34214 ft | 463 kts | 272° |
| 2026-05-05 07:54 | 43.49460 | 81.10883 | 34200 ft | 463 kts | 272° |
| 2026-05-05 07:55 | 43.49604 | 81.02085 | 34196 ft | 462 kts | 272° |
| 2026-05-05 07:55 | 43.49742 | 80.93226 | 34196 ft | 464 kts | 272° |
| 2026-05-05 07:56 | 43.49873 | 80.84377 | 34195 ft | 464 kts | 272° |
| 2026-05-05 07:56 | 43.49997 | 80.75555 | 34200 ft | 464 kts | 272° |
| 2026-05-05 07:57 | 43.50244 | 80.66633 | 34194 ft | 465 kts | 275° |
| 2026-05-05 07:57 | 43.50604 | 80.57810 | 34180 ft | 465 kts | 275° |
| 2026-05-05 07:58 | 43.50950 | 80.48957 | 34180 ft | 466 kts | 274° |
| 2026-05-05 07:58 | 43.51285 | 80.40023 | 34172 ft | 466 kts | 275° |
| 2026-05-05 07:59 | 43.51609 | 80.31163 | 34181 ft | 467 kts | 274° |
| 2026-05-05 07:59 | 43.51926 | 80.22241 | 34167 ft | 468 kts | 274° |
| 2026-05-05 08:00 | 43.52237 | 80.13265 | 34182 ft | 469 kts | 274° |
| 2026-05-05 08:00 | 43.52539 | 80.04344 | 34172 ft | 469 kts | 274° |
| 2026-05-05 08:01 | 43.52835 | 79.95383 | 34153 ft | 471 kts | 274° |
| 2026-05-05 08:01 | 43.53124 | 79.86418 | 34145 ft | 470 kts | 274° |
| 2026-05-05 08:02 | 43.53405 | 79.77461 | 34151 ft | 469 kts | 274° |
| 2026-05-05 08:02 | 43.53682 | 79.68472 | 34151 ft | 470 kts | 274° |
| 2026-05-05 08:03 | 43.53950 | 79.59512 | 34142 ft | 471 kts | 274° |
| 2026-05-05 08:03 | 43.54213 | 79.50503 | 34136 ft | 472 kts | 274° |
| 2026-05-05 08:04 | 43.54469 | 79.41497 | 34142 ft | 471 kts | 274° |
| 2026-05-05 08:04 | 43.54718 | 79.32461 | 34137 ft | 473 kts | 273° |
| 2026-05-05 08:05 | 43.54958 | 79.23461 | 34144 ft | 474 kts | 273° |
| 2026-05-05 08:05 | 43.55192 | 79.14442 | 34151 ft | 473 kts | 274° |
| 2026-05-05 08:06 | 43.55421 | 79.05357 | 34157 ft | 473 kts | 273° |
| 2026-05-05 08:06 | 43.55640 | 78.96362 | 34173 ft | 472 kts | 274° |
| 2026-05-05 08:07 | 43.55854 | 78.87303 | 34179 ft | 474 kts | 274° |
| 2026-05-05 08:07 | 43.56061 | 78.78241 | 34192 ft | 474 kts | 274° |
| 2026-05-05 08:08 | 43.56260 | 78.69199 | 34193 ft | 474 kts | 274° |
| 2026-05-05 08:08 | 43.56453 | 78.60136 | 34196 ft | 475 kts | 273° |
| 2026-05-05 08:09 | 43.56637 | 78.51078 | 34179 ft | 476 kts | 273° |
| 2026-05-05 08:09 | 43.56817 | 78.41936 | 34175 ft | 476 kts | 273° |
| 2026-05-05 08:10 | 43.56989 | 78.32845 | 34170 ft | 477 kts | 272° |
| 2026-05-05 08:10 | 43.57153 | 78.23766 | 34170 ft | 476 kts | 272° |
| 2026-05-05 08:11 | 43.57311 | 78.14618 | 34176 ft | 477 kts | 272° |
| 2026-05-05 08:11 | 43.57462 | 78.05496 | 34165 ft | 478 kts | 272° |
| 2026-05-05 08:12 | 43.57606 | 77.96398 | 34158 ft | 478 kts | 272° |
| 2026-05-05 08:12 | 43.57744 | 77.87279 | 34178 ft | 477 kts | 272° |
| 2026-05-05 08:13 | 43.57875 | 77.78144 | 34164 ft | 478 kts | 272° |
| 2026-05-05 08:13 | 43.57999 | 77.68972 | 34190 ft | 477 kts | 272° |
| 2026-05-05 08:14 | 43.58115 | 77.59835 | 34190 ft | 477 kts | 272° |
| 2026-05-05 08:14 | 43.58224 | 77.50712 | 34185 ft | 478 kts | 272° |
| 2026-05-05 08:15 | 43.58511 | 77.41599 | 34174 ft | 478 kts | 274° |
| 2026-05-05 08:15 | 43.58843 | 77.32461 | 34175 ft | 477 kts | 273° |
| 2026-05-05 08:16 | 43.59160 | 77.23332 | 34173 ft | 479 kts | 273° |
| 2026-05-05 08:16 | 43.59459 | 77.14223 | 34156 ft | 478 kts | 272° |
| 2026-05-05 08:17 | 43.59554 | 77.05055 | 34159 ft | 479 kts | 271° |
| 2026-05-05 08:17 | 43.59627 | 76.95866 | 34166 ft | 479 kts | 271° |
| 2026-05-05 08:18 | 43.59705 | 76.86742 | 34181 ft | 478 kts | 271° |
| 2026-05-05 08:18 | 43.59779 | 76.77612 | 34178 ft | 478 kts | 271° |
| 2026-05-05 08:19 | 43.59837 | 76.68405 | 34173 ft | 479 kts | 271° |
| 2026-05-05 08:19 | 43.59889 | 76.59259 | 34179 ft | 478 kts | 271° |
| 2026-05-05 08:20 | 43.59935 | 76.50117 | 34173 ft | 477 kts | 271° |
| 2026-05-05 08:20 | 43.59972 | 76.41039 | 34153 ft | 479 kts | 271° |
| 2026-05-05 08:21 | 43.60003 | 76.31853 | 34153 ft | 479 kts | 270° |
| 2026-05-05 08:21 | 43.60399 | 76.22708 | 34152 ft | 480 kts | 274° |
| 2026-05-05 08:22 | 43.60868 | 76.13542 | 34163 ft | 480 kts | 274° |
| 2026-05-05 08:22 | 43.61312 | 76.04384 | 34150 ft | 480 kts | 274° |
| 2026-05-05 08:23 | 43.61740 | 75.95241 | 34149 ft | 479 kts | 274° |
| 2026-05-05 08:23 | 43.62157 | 75.86062 | 34144 ft | 479 kts | 274° |
| 2026-05-05 08:24 | 43.62563 | 75.76912 | 34146 ft | 479 kts | 274° |
| 2026-05-05 08:24 | 43.62958 | 75.67813 | 34144 ft | 478 kts | 274° |
| 2026-05-05 08:25 | 43.63348 | 75.58641 | 34144 ft | 478 kts | 274° |
| 2026-05-05 08:25 | 43.63727 | 75.49523 | 34138 ft | 478 kts | 274° |
| 2026-05-05 08:26 | 43.64097 | 75.40408 | 34132 ft | 477 kts | 274° |
| 2026-05-05 08:26 | 43.64461 | 75.31271 | 34133 ft | 477 kts | 272° |
| 2026-05-05 08:27 | 43.64814 | 75.22215 | 34130 ft | 477 kts | 272° |
| 2026-05-05 08:27 | 43.65165 | 75.13045 | 34125 ft | 477 kts | 272° |
| 2026-05-05 08:28 | 43.65503 | 75.03996 | 34129 ft | 476 kts | 272° |
| 2026-05-05 08:28 | 43.65837 | 74.94859 | 34121 ft | 477 kts | 272° |
| 2026-05-05 08:29 | 43.66164 | 74.85734 | 34123 ft | 478 kts | 272° |
| 2026-05-05 08:30 | 43.66640 | 74.72066 | 34135 ft | 478 kts | 272° |
| 2026-05-05 08:30 | 43.66948 | 74.62939 | 34128 ft | 479 kts | 272° |
| 2026-05-05 08:31 | 43.67251 | 74.53759 | 34127 ft | 478 kts | 272° |
| 2026-05-05 08:31 | 43.67545 | 74.44630 | 34126 ft | 478 kts | 272° |
| 2026-05-05 08:32 | 43.67833 | 74.35459 | 34120 ft | 479 kts | 272° |
| 2026-05-05 08:32 | 43.68114 | 74.26291 | 34119 ft | 479 kts | 271° |
| 2026-05-05 08:33 | 43.68389 | 74.17107 | 34111 ft | 480 kts | 271° |
| 2026-05-05 08:33 | 43.68668 | 74.07932 | 34101 ft | 481 kts | 271° |
| 2026-05-05 08:34 | 43.68941 | 73.98704 | 34090 ft | 480 kts | 271° |
| 2026-05-05 08:34 | 43.69205 | 73.89490 | 34080 ft | 481 kts | 272° |
| 2026-05-05 08:35 | 43.69463 | 73.80250 | 34076 ft | 483 kts | 271° |
| 2026-05-05 08:35 | 43.69428 | 73.71028 | 34079 ft | 483 kts | 266° |
| 2026-05-05 08:36 | 43.68962 | 73.61817 | 34073 ft | 483 kts | 265° |
| 2026-05-05 08:36 | 43.68484 | 73.52593 | 34069 ft | 483 kts | 265° |
| 2026-05-05 08:37 | 43.68000 | 73.43355 | 34066 ft | 483 kts | 265° |
| 2026-05-05 08:37 | 43.67511 | 73.34161 | 34067 ft | 483 kts | 265° |
| 2026-05-05 08:38 | 43.67013 | 73.24923 | 34069 ft | 483 kts | 265° |
| 2026-05-05 08:38 | 43.66509 | 73.15703 | 34067 ft | 483 kts | 265° |
| 2026-05-05 08:39 | 43.65997 | 73.06480 | 34065 ft | 484 kts | 265° |
| 2026-05-05 08:39 | 43.65475 | 72.97203 | 34064 ft | 484 kts | 265° |
| 2026-05-05 08:40 | 43.64950 | 72.88010 | 34070 ft | 485 kts | 265° |
| 2026-05-05 08:40 | 43.64414 | 72.78764 | 34060 ft | 484 kts | 265° |
| 2026-05-05 08:41 | 43.63872 | 72.69527 | 34064 ft | 483 kts | 265° |
| 2026-05-05 08:41 | 43.63325 | 72.60349 | 34059 ft | 480 kts | 265° |
| 2026-05-05 08:42 | 43.62775 | 72.51231 | 34057 ft | 480 kts | 265° |
| 2026-05-05 08:42 | 43.62215 | 72.42082 | 34061 ft | 483 kts | 266° |
| 2026-05-05 08:43 | 43.61645 | 72.32881 | 34054 ft | 484 kts | 266° |
| 2026-05-05 08:43 | 43.61066 | 72.23659 | 34067 ft | 483 kts | 265° |
| 2026-05-05 08:44 | 43.60480 | 72.14447 | 34054 ft | 482 kts | 266° |
| 2026-05-05 08:44 | 43.59888 | 72.05257 | 34055 ft | 483 kts | 266° |
| 2026-05-05 08:45 | 43.59290 | 71.96090 | 34057 ft | 482 kts | 266° |
| 2026-05-05 08:45 | 43.58685 | 71.86932 | 34054 ft | 482 kts | 266° |
| 2026-05-05 08:46 | 43.58068 | 71.77711 | 34050 ft | 482 kts | 266° |
| 2026-05-05 08:46 | 43.57450 | 71.68574 | 34049 ft | 482 kts | 266° |
| 2026-05-05 08:47 | 43.56822 | 71.59418 | 34047 ft | 482 kts | 266° |
| 2026-05-05 08:47 | 43.56185 | 71.50221 | 34044 ft | 482 kts | 266° |
| 2026-05-05 08:48 | 43.55543 | 71.41060 | 34039 ft | 481 kts | 266° |
| 2026-05-05 08:48 | 43.54890 | 71.31881 | 34037 ft | 482 kts | 265° |
| 2026-05-05 08:49 | 43.54232 | 71.22700 | 34037 ft | 481 kts | 265° |
| 2026-05-05 08:49 | 43.53573 | 71.13610 | 34033 ft | 481 kts | 265° |
| 2026-05-05 08:50 | 43.52898 | 71.04407 | 34033 ft | 481 kts | 265° |
| 2026-05-05 08:50 | 43.52221 | 70.95280 | 34032 ft | 481 kts | 265° |
| 2026-05-05 08:51 | 43.51536 | 70.86138 | 34028 ft | 480 kts | 265° |
| 2026-05-05 08:51 | 43.50840 | 70.77072 | 34033 ft | 479 kts | 265° |
| 2026-05-05 08:52 | 43.50130 | 70.67948 | 34033 ft | 478 kts | 265° |
| 2026-05-05 08:52 | 43.49419 | 70.58893 | 34039 ft | 477 kts | 265° |
| 2026-05-05 08:53 | 43.48702 | 70.49863 | 34038 ft | 475 kts | 265° |
| 2026-05-05 08:53 | 43.47975 | 70.40794 | 34036 ft | 476 kts | 265° |
| 2026-05-05 08:54 | 43.47243 | 70.31761 | 34050 ft | 475 kts | 264° |
| 2026-05-05 08:54 | 43.46507 | 70.22756 | 34052 ft | 474 kts | 264° |
| 2026-05-05 08:55 | 43.45770 | 70.13831 | 34056 ft | 473 kts | 264° |
| 2026-05-05 08:55 | 43.45022 | 70.04864 | 34063 ft | 473 kts | 264° |
| 2026-05-05 08:56 | 43.44268 | 69.95904 | 34086 ft | 473 kts | 264° |
| 2026-05-05 08:56 | 43.43506 | 69.86936 | 34076 ft | 473 kts | 264° |
| 2026-05-05 08:57 | 43.42739 | 69.77990 | 34078 ft | 471 kts | 264° |
| 2026-05-05 08:57 | 43.41983 | 69.69048 | 34075 ft | 471 kts | 264° |
| 2026-05-05 08:58 | 43.41243 | 69.60146 | 34070 ft | 471 kts | 264° |
| 2026-05-05 08:58 | 43.40489 | 69.51177 | 34058 ft | 471 kts | 264° |
| 2026-05-05 08:59 | 43.39730 | 69.42239 | 34058 ft | 471 kts | 264° |
| 2026-05-05 08:59 | 43.38967 | 69.33345 | 34053 ft | 471 kts | 263° |
| 2026-05-05 09:00 | 43.38197 | 69.24442 | 34042 ft | 471 kts | 263° |
| 2026-05-05 09:00 | 43.37421 | 69.15539 | 34045 ft | 472 kts | 263° |
| 2026-05-05 09:01 | 43.36690 | 69.06654 | 34041 ft | 470 kts | 263° |
| 2026-05-05 09:01 | 43.35947 | 68.97684 | 34034 ft | 472 kts | 263° |
| 2026-05-05 09:02 | 43.35201 | 68.88792 | 34031 ft | 471 kts | 263° |
| 2026-05-05 09:02 | 43.34443 | 68.79854 | 34019 ft | 471 kts | 263° |
| 2026-05-05 09:03 | 43.33681 | 68.70946 | 34024 ft | 472 kts | 263° |
| 2026-05-05 09:03 | 43.32910 | 68.62031 | 34021 ft | 471 kts | 263° |
| 2026-05-05 09:04 | 43.32043 | 68.53127 | 34019 ft | 471 kts | 261° |
| 2026-05-05 09:04 | 43.30962 | 68.44338 | 34011 ft | 470 kts | 261° |
| 2026-05-05 09:05 | 43.29876 | 68.35508 | 34002 ft | 471 kts | 260° |
| 2026-05-05 09:05 | 43.28298 | 68.26789 | 34016 ft | 470 kts | 255° |
| 2026-05-05 09:06 | 43.26655 | 68.18181 | 34009 ft | 470 kts | 255° |
| 2026-05-05 09:06 | 43.25010 | 68.09470 | 34010 ft | 470 kts | 256° |
| 2026-05-05 09:07 | 43.23385 | 68.00839 | 33993 ft | 470 kts | 256° |
| 2026-05-05 09:07 | 43.21753 | 67.92162 | 33993 ft | 470 kts | 256° |
| 2026-05-05 09:08 | 43.20120 | 67.83506 | 33990 ft | 472 kts | 256° |
| 2026-05-05 09:08 | 43.18472 | 67.74800 | 33986 ft | 471 kts | 256° |
| 2026-05-05 09:09 | 43.16833 | 67.66179 | 33981 ft | 470 kts | 256° |
| 2026-05-05 09:09 | 43.15182 | 67.57536 | 33978 ft | 469 kts | 256° |
| 2026-05-05 09:10 | 43.13532 | 67.48927 | 33979 ft | 468 kts | 256° |
| 2026-05-05 09:10 | 43.11883 | 67.40358 | 33982 ft | 468 kts | 256° |
| 2026-05-05 09:11 | 43.10214 | 67.31721 | 33984 ft | 467 kts | 256° |
| 2026-05-05 09:11 | 43.08552 | 67.23152 | 33980 ft | 468 kts | 256° |
| 2026-05-05 09:12 | 43.06890 | 67.14626 | 33980 ft | 467 kts | 256° |
| 2026-05-05 09:12 | 43.05205 | 67.06015 | 33980 ft | 467 kts | 256° |
| 2026-05-05 09:13 | 43.03532 | 66.97501 | 33978 ft | 466 kts | 256° |
| 2026-05-05 09:13 | 43.01847 | 66.88967 | 33975 ft | 466 kts | 256° |
| 2026-05-05 09:14 | 43.00151 | 66.80415 | 33975 ft | 466 kts | 256° |
| 2026-05-05 09:14 | 42.98439 | 66.71876 | 33974 ft | 467 kts | 256° |
| 2026-05-05 09:15 | 42.96713 | 66.63375 | 33976 ft | 466 kts | 256° |
| 2026-05-05 09:15 | 42.94995 | 66.54890 | 33983 ft | 465 kts | 256° |
| 2026-05-05 09:16 | 42.93290 | 66.46389 | 33973 ft | 464 kts | 256° |
| 2026-05-05 09:16 | 42.91595 | 66.37971 | 33977 ft | 464 kts | 256° |
| 2026-05-05 09:17 | 42.89874 | 66.29470 | 33981 ft | 464 kts | 256° |
| 2026-05-05 09:17 | 42.88160 | 66.21040 | 33979 ft | 463 kts | 256° |
| 2026-05-05 09:18 | 42.86437 | 66.12601 | 33981 ft | 463 kts | 256° |
| 2026-05-05 09:18 | 42.84689 | 66.04113 | 33976 ft | 463 kts | 256° |
| 2026-05-05 09:19 | 42.82934 | 65.95677 | 33981 ft | 464 kts | 256° |
| 2026-05-05 09:19 | 42.81178 | 65.87268 | 33979 ft | 463 kts | 256° |
| 2026-05-05 09:20 | 42.79417 | 65.78868 | 33982 ft | 463 kts | 256° |
| 2026-05-05 09:20 | 42.77642 | 65.70438 | 33983 ft | 462 kts | 256° |
| 2026-05-05 09:21 | 42.75868 | 65.62038 | 33984 ft | 461 kts | 256° |
| 2026-05-05 09:21 | 42.74103 | 65.53722 | 33985 ft | 461 kts | 256° |
| 2026-05-05 09:22 | 42.72324 | 65.45366 | 33985 ft | 460 kts | 256° |
| 2026-05-05 09:22 | 42.70545 | 65.37045 | 33983 ft | 460 kts | 256° |
| 2026-05-05 09:23 | 42.68763 | 65.28741 | 33989 ft | 461 kts | 256° |
| 2026-05-05 09:23 | 42.66967 | 65.20410 | 33988 ft | 458 kts | 256° |
| 2026-05-05 09:24 | 42.65173 | 65.12119 | 33988 ft | 459 kts | 256° |
| 2026-05-05 09:24 | 42.63372 | 65.03826 | 33988 ft | 458 kts | 256° |
| 2026-05-05 09:25 | 42.61573 | 64.95579 | 33988 ft | 456 kts | 256° |
| 2026-05-05 09:25 | 42.59775 | 64.87363 | 33990 ft | 456 kts | 256° |
| 2026-05-05 09:26 | 42.57955 | 64.79082 | 33990 ft | 456 kts | 256° |
| 2026-05-05 09:26 | 42.56143 | 64.70868 | 33990 ft | 456 kts | 256° |
| 2026-05-05 09:27 | 42.54332 | 64.62689 | 33987 ft | 456 kts | 256° |
| 2026-05-05 09:27 | 42.52508 | 64.54485 | 33978 ft | 455 kts | 256° |
| 2026-05-05 09:28 | 42.50672 | 64.46252 | 33973 ft | 454 kts | 256° |
| 2026-05-05 09:28 | 42.48845 | 64.38096 | 33971 ft | 453 kts | 256° |
| 2026-05-05 09:29 | 42.47017 | 64.29963 | 33980 ft | 454 kts | 256° |
| 2026-05-05 09:29 | 42.45182 | 64.21831 | 33981 ft | 453 kts | 256° |
| 2026-05-05 09:30 | 42.43358 | 64.13695 | 33979 ft | 452 kts | 256° |
| 2026-05-05 09:30 | 42.41543 | 64.05617 | 33977 ft | 451 kts | 256° |
| 2026-05-05 09:31 | 42.39713 | 63.97522 | 33974 ft | 451 kts | 256° |
| 2026-05-05 09:31 | 42.37855 | 63.89440 | 33980 ft | 451 kts | 256° |
| 2026-05-05 09:32 | 42.35995 | 63.81384 | 33985 ft | 450 kts | 256° |
| 2026-05-05 09:32 | 42.34129 | 63.73325 | 33990 ft | 450 kts | 256° |
| 2026-05-05 09:33 | 42.32256 | 63.65266 | 33985 ft | 449 kts | 256° |
| 2026-05-05 09:33 | 42.30397 | 63.57297 | 33977 ft | 448 kts | 256° |
| 2026-05-05 09:34 | 42.28524 | 63.49293 | 33968 ft | 448 kts | 256° |
| 2026-05-05 09:34 | 42.26645 | 63.41293 | 33961 ft | 447 kts | 256° |
| 2026-05-05 09:35 | 42.24764 | 63.33311 | 33960 ft | 447 kts | 255° |
| 2026-05-05 09:35 | 42.21928 | 63.21330 | 33956 ft | 447 kts | 255° |
| 2026-05-05 09:36 | 42.20045 | 63.13412 | 33951 ft | 446 kts | 255° |
| 2026-05-05 09:36 | 42.18139 | 63.05426 | 33947 ft | 447 kts | 255° |
| 2026-05-05 09:37 | 42.16237 | 62.97475 | 33943 ft | 447 kts | 255° |
| 2026-05-05 09:37 | 42.14338 | 62.89555 | 33947 ft | 446 kts | 255° |
| 2026-05-05 09:38 | 42.12425 | 62.81598 | 33950 ft | 446 kts | 255° |
| 2026-05-05 09:38 | 42.10509 | 62.73660 | 33944 ft | 444 kts | 255° |
| 2026-05-05 09:39 | 42.08612 | 62.65824 | 33943 ft | 443 kts | 255° |
| 2026-05-05 09:39 | 42.06704 | 62.57967 | 33948 ft | 442 kts | 255° |
| 2026-05-05 09:40 | 42.04797 | 62.50145 | 33953 ft | 441 kts | 255° |
| 2026-05-05 09:40 | 42.02879 | 62.42303 | 33944 ft | 440 kts | 255° |
| 2026-05-05 09:41 | 42.00962 | 62.34495 | 33949 ft | 441 kts | 255° |
| 2026-05-05 09:41 | 41.99040 | 62.26690 | 33949 ft | 441 kts | 255° |
| 2026-05-05 09:42 | 41.97115 | 62.18901 | 33938 ft | 440 kts | 255° |
| 2026-05-05 09:42 | 41.95191 | 62.11140 | 33937 ft | 441 kts | 255° |
| 2026-05-05 09:43 | 41.93242 | 62.03292 | 34091 ft | 447 kts | 254° |
| 2026-05-05 09:43 | 41.92263 | 61.99361 | 34591 ft | 445 kts | 254° |
| 2026-05-05 09:43 | 41.91290 | 61.95456 | 35147 ft | 440 kts | 254° |
| 2026-05-05 09:44 | 41.90321 | 61.91573 | 35595 ft | 439 kts | 254° |
| 2026-05-05 09:44 | 41.89355 | 61.87710 | 35870 ft | 441 kts | 254° |
| 2026-05-05 09:44 | 41.87394 | 61.79882 | 35915 ft | 442 kts | 254° |
| 2026-05-05 09:45 | 41.85438 | 61.72110 | 35919 ft | 441 kts | 254° |
| 2026-05-05 09:45 | 41.83467 | 61.64325 | 35915 ft | 440 kts | 254° |
| 2026-05-05 09:46 | 41.81500 | 61.56580 | 35913 ft | 441 kts | 254° |
| 2026-05-05 09:46 | 41.79533 | 61.48858 | 35911 ft | 439 kts | 254° |
| 2026-05-05 09:47 | 41.77561 | 61.41142 | 35907 ft | 439 kts | 254° |
| 2026-05-05 09:47 | 41.75573 | 61.33389 | 35915 ft | 440 kts | 253° |
| 2026-05-05 09:48 | 41.73581 | 61.25647 | 35925 ft | 440 kts | 253° |
| 2026-05-05 09:48 | 41.71595 | 61.17951 | 35924 ft | 440 kts | 253° |
| 2026-05-05 09:49 | 41.69605 | 61.10265 | 35923 ft | 439 kts | 253° |
| 2026-05-05 09:49 | 41.67610 | 61.02583 | 35921 ft | 438 kts | 253° |
| 2026-05-05 09:50 | 41.65595 | 60.94845 | 35921 ft | 439 kts | 253° |
| 2026-05-05 09:50 | 41.63587 | 60.87167 | 35921 ft | 438 kts | 253° |
| 2026-05-05 09:51 | 41.61586 | 60.79533 | 35923 ft | 439 kts | 253° |
| 2026-05-05 09:51 | 41.59565 | 60.71849 | 35919 ft | 438 kts | 253° |
| 2026-05-05 09:52 | 41.57558 | 60.64224 | 35917 ft | 437 kts | 254° |
| 2026-05-05 09:52 | 41.55757 | 60.56475 | 35914 ft | 436 kts | 255° |
| 2026-05-05 09:53 | 41.53971 | 60.48735 | 35910 ft | 435 kts | 255° |
| 2026-05-05 09:53 | 41.52189 | 60.41076 | 35903 ft | 435 kts | 255° |
| 2026-05-05 09:54 | 41.50384 | 60.33366 | 35902 ft | 436 kts | 254° |
| 2026-05-05 09:54 | 41.48579 | 60.25692 | 35898 ft | 434 kts | 254° |
| 2026-05-05 09:55 | 41.46764 | 60.18015 | 35892 ft | 434 kts | 254° |
| 2026-05-05 09:55 | 41.44929 | 60.10368 | 35889 ft | 434 kts | 254° |
| 2026-05-05 09:56 | 41.43096 | 60.02756 | 35887 ft | 433 kts | 254° |
| 2026-05-05 09:56 | 41.41248 | 59.95108 | 35886 ft | 434 kts | 254° |
| 2026-05-05 09:57 | 41.39396 | 59.87467 | 35886 ft | 433 kts | 254° |
| 2026-05-05 09:57 | 41.37550 | 59.79872 | 35885 ft | 434 kts | 253° |
| 2026-05-05 09:58 | 41.35690 | 59.72247 | 35884 ft | 433 kts | 253° |
| 2026-05-05 09:58 | 41.34140 | 59.64551 | 35882 ft | 432 kts | 263° |
| 2026-05-05 09:59 | 41.33392 | 59.56641 | 35883 ft | 431 kts | 263° |
| 2026-05-05 09:59 | 41.32655 | 59.48710 | 35884 ft | 431 kts | 263° |
| 2026-05-05 10:00 | 41.31915 | 59.40838 | 35883 ft | 430 kts | 263° |
| 2026-05-05 10:00 | 41.31171 | 59.33007 | 35885 ft | 430 kts | 263° |
| 2026-05-05 10:01 | 41.30419 | 59.25145 | 35885 ft | 429 kts | 263° |
| 2026-05-05 10:01 | 41.29659 | 59.17265 | 35881 ft | 430 kts | 263° |
| 2026-05-05 10:02 | 41.28898 | 59.09425 | 35875 ft | 430 kts | 262° |
| 2026-05-05 10:02 | 41.28125 | 59.01537 | 35869 ft | 431 kts | 262° |
| 2026-05-05 10:03 | 41.27348 | 58.93660 | 35860 ft | 431 kts | 262° |
| 2026-05-05 10:03 | 41.26566 | 58.85786 | 35857 ft | 431 kts | 262° |
| 2026-05-05 10:04 | 41.25780 | 58.77915 | 35855 ft | 431 kts | 262° |
| 2026-05-05 10:04 | 41.24987 | 58.70047 | 35855 ft | 430 kts | 262° |
| 2026-05-05 10:05 | 41.24188 | 58.62175 | 35851 ft | 430 kts | 262° |
| 2026-05-05 10:05 | 41.23386 | 58.54325 | 35849 ft | 430 kts | 262° |
| 2026-05-05 10:06 | 41.22580 | 58.46479 | 35849 ft | 430 kts | 262° |
| 2026-05-05 10:06 | 41.21770 | 58.38658 | 35839 ft | 430 kts | 262° |
| 2026-05-05 10:07 | 41.20955 | 58.30845 | 35838 ft | 429 kts | 261° |
| 2026-05-05 10:07 | 41.20133 | 58.23011 | 35838 ft | 429 kts | 261° |
| 2026-05-05 10:08 | 41.19305 | 58.15173 | 35838 ft | 430 kts | 261° |
| 2026-05-05 10:08 | 41.18467 | 58.07294 | 35833 ft | 430 kts | 261° |
| 2026-05-05 10:09 | 41.17633 | 57.99493 | 35840 ft | 430 kts | 261° |
| 2026-05-05 10:09 | 41.16788 | 57.91643 | 35839 ft | 431 kts | 261° |
| 2026-05-05 10:10 | 41.15936 | 57.83784 | 35837 ft | 430 kts | 261° |
| 2026-05-05 10:10 | 41.15078 | 57.75916 | 35830 ft | 431 kts | 261° |
| 2026-05-05 10:11 | 41.14219 | 57.68095 | 35825 ft | 430 kts | 261° |
| 2026-05-05 10:11 | 41.13357 | 57.60294 | 35824 ft | 430 kts | 261° |
| 2026-05-05 10:12 | 41.12486 | 57.52457 | 35823 ft | 430 kts | 261° |
| 2026-05-05 10:12 | 41.11611 | 57.44641 | 35819 ft | 430 kts | 261° |
| 2026-05-05 10:13 | 41.10731 | 57.36821 | 35817 ft | 430 kts | 261° |
| 2026-05-05 10:13 | 41.09843 | 57.28987 | 36089 ft | 430 kts | 260° |
| 2026-05-05 10:14 | 41.09401 | 57.25102 | 35848 ft | 429 kts | 260° |
| 2026-05-05 10:14 | 41.08954 | 57.21184 | 35826 ft | 426 kts | 259° |
| 2026-05-05 10:14 | 41.08061 | 57.13406 | 35825 ft | 429 kts | 260° |
| 2026-05-05 10:15 | 41.07165 | 57.05645 | 35822 ft | 428 kts | 259° |
| 2026-05-05 10:15 | 41.06257 | 56.97826 | 35826 ft | 429 kts | 259° |
| 2026-05-05 10:16 | 41.05352 | 56.90082 | 35833 ft | 428 kts | 259° |
| 2026-05-05 10:16 | 41.04432 | 56.82256 | 35828 ft | 429 kts | 259° |
| 2026-05-05 10:17 | 41.03975 | 56.78383 | 35592 ft | 427 kts | 259° |
| 2026-05-05 10:17 | 41.03520 | 56.74536 | 35796 ft | 428 kts | 259° |
| 2026-05-05 10:17 | 41.03053 | 56.70612 | 35961 ft | 432 kts | 259° |
| 2026-05-05 10:17 | 41.02587 | 56.66697 | 35666 ft | 426 kts | 259° |
| 2026-05-05 10:18 | 41.02132 | 56.62882 | 35953 ft | 430 kts | 259° |
| 2026-05-05 10:18 | 41.01659 | 56.58943 | 35828 ft | 428 kts | 259° |
| 2026-05-05 10:18 | 41.01199 | 56.55110 | 35580 ft | 425 kts | 259° |
| 2026-05-05 10:18 | 41.00749 | 56.51220 | 35765 ft | 427 kts | 262° |
| 2026-05-05 10:19 | 41.00559 | 56.43310 | 35799 ft | 432 kts | 267° |
| 2026-05-05 10:19 | 41.00482 | 56.35413 | 35802 ft | 431 kts | 267° |
| 2026-05-05 10:20 | 41.00394 | 56.27504 | 35815 ft | 430 kts | 266° |
| 2026-05-05 10:20 | 41.00295 | 56.19631 | 35803 ft | 431 kts | 266° |
| 2026-05-05 10:21 | 41.00190 | 56.11756 | 35789 ft | 430 kts | 266° |
| 2026-05-05 10:21 | 41.00078 | 56.03898 | 35794 ft | 427 kts | 266° |
| 2026-05-05 10:22 | 40.99960 | 55.96009 | 35803 ft | 428 kts | 266° |
| 2026-05-05 10:22 | 40.99836 | 55.88192 | 35800 ft | 429 kts | 265° |
| 2026-05-05 10:23 | 40.99707 | 55.80312 | 35799 ft | 428 kts | 265° |
| 2026-05-05 10:23 | 40.99583 | 55.72477 | 35805 ft | 429 kts | 265° |
| 2026-05-05 10:24 | 40.99461 | 55.64591 | 35806 ft | 429 kts | 265° |
| 2026-05-05 10:24 | 40.99333 | 55.56708 | 35818 ft | 428 kts | 265° |
| 2026-05-05 10:25 | 40.99200 | 55.48872 | 35822 ft | 428 kts | 265° |
| 2026-05-05 10:25 | 40.99062 | 55.41019 | 35824 ft | 427 kts | 265° |
| 2026-05-05 10:26 | 40.98917 | 55.33168 | 35832 ft | 429 kts | 265° |
| 2026-05-05 10:26 | 40.98768 | 55.25306 | 35837 ft | 426 kts | 265° |
| 2026-05-05 10:27 | 40.98613 | 55.17463 | 35836 ft | 428 kts | 265° |
| 2026-05-05 10:27 | 40.98454 | 55.09675 | 35836 ft | 427 kts | 264° |
| 2026-05-05 10:28 | 40.98288 | 55.01783 | 35830 ft | 427 kts | 264° |
| 2026-05-05 10:28 | 40.98119 | 54.93998 | 35822 ft | 426 kts | 264° |
| 2026-05-05 10:29 | 40.97942 | 54.86147 | 35819 ft | 427 kts | 264° |
| 2026-05-05 10:29 | 40.97752 | 54.78285 | 35819 ft | 428 kts | 264° |
| 2026-05-05 10:30 | 40.97558 | 54.70459 | 35818 ft | 427 kts | 264° |
| 2026-05-05 10:30 | 40.97359 | 54.62629 | 35823 ft | 427 kts | 264° |
| 2026-05-05 10:31 | 40.97154 | 54.54782 | 35817 ft | 427 kts | 264° |
| 2026-05-05 10:31 | 40.96943 | 54.46925 | 35814 ft | 427 kts | 264° |
| 2026-05-05 10:32 | 40.96728 | 54.39126 | 35811 ft | 428 kts | 264° |
| 2026-05-05 10:32 | 40.96507 | 54.31265 | 35820 ft | 428 kts | 263° |
| 2026-05-05 10:33 | 40.96282 | 54.23432 | 35820 ft | 428 kts | 263° |
| 2026-05-05 10:33 | 40.96049 | 54.15544 | 35818 ft | 428 kts | 263° |
| 2026-05-05 10:34 | 40.95813 | 54.07723 | 35818 ft | 428 kts | 263° |
| 2026-05-05 10:34 | 40.95570 | 53.99863 | 35817 ft | 427 kts | 263° |
| 2026-05-05 10:35 | 40.95324 | 53.92052 | 35818 ft | 426 kts | 263° |
| 2026-05-05 10:35 | 40.95072 | 53.84231 | 35825 ft | 426 kts | 263° |
| 2026-05-05 10:36 | 40.94816 | 53.76444 | 35831 ft | 426 kts | 263° |
| 2026-05-05 10:36 | 40.94553 | 53.68626 | 35843 ft | 425 kts | 263° |
| 2026-05-05 10:37 | 40.94286 | 53.60815 | 35848 ft | 426 kts | 263° |
| 2026-05-05 10:37 | 40.94014 | 53.53042 | 35853 ft | 426 kts | 263° |
| 2026-05-05 10:38 | 40.93736 | 53.45228 | 35852 ft | 425 kts | 263° |
| 2026-05-05 10:38 | 40.93452 | 53.37407 | 35855 ft | 427 kts | 263° |
| 2026-05-05 10:39 | 40.93165 | 53.29649 | 35869 ft | 425 kts | 262° |
| 2026-05-05 10:39 | 40.92871 | 53.21843 | 35872 ft | 425 kts | 262° |
| 2026-05-05 10:40 | 40.92574 | 53.14084 | 35871 ft | 423 kts | 262° |
| 2026-05-05 10:40 | 40.92269 | 53.06390 | 35884 ft | 424 kts | 262° |
| 2026-05-05 10:41 | 40.91953 | 52.98634 | 35877 ft | 422 kts | 262° |
| 2026-05-05 10:41 | 40.91633 | 52.90908 | 35878 ft | 423 kts | 262° |
| 2026-05-05 10:42 | 40.91143 | 52.79296 | 35871 ft | 422 kts | 262° |
| 2026-05-05 10:43 | 40.90810 | 52.71597 | 35877 ft | 422 kts | 262° |
| 2026-05-05 10:43 | 40.90470 | 52.63818 | 35872 ft | 422 kts | 262° |
| 2026-05-05 10:44 | 40.89638 | 52.56248 | 35889 ft | 417 kts | 255° |
| 2026-05-05 10:44 | 40.88466 | 52.48769 | 35899 ft | 417 kts | 254° |
| 2026-05-05 10:45 | 40.87287 | 52.41270 | 35896 ft | 417 kts | 254° |
| 2026-05-05 10:45 | 40.86113 | 52.33836 | 35895 ft | 416 kts | 254° |
| 2026-05-05 10:46 | 40.84927 | 52.26361 | 35906 ft | 416 kts | 253° |
| 2026-05-05 10:46 | 40.83732 | 52.18859 | 35907 ft | 416 kts | 253° |
| 2026-05-05 10:47 | 40.82544 | 52.11428 | 35914 ft | 416 kts | 254° |
| 2026-05-05 10:47 | 40.81353 | 52.04019 | 35910 ft | 415 kts | 253° |
| 2026-05-05 10:48 | 40.80154 | 51.96593 | 35908 ft | 415 kts | 253° |
| 2026-05-05 10:48 | 40.78953 | 51.89180 | 35909 ft | 416 kts | 253° |
| 2026-05-05 10:49 | 40.77745 | 51.81764 | 35907 ft | 417 kts | 253° |
| 2026-05-05 10:49 | 40.76523 | 51.74288 | 35903 ft | 416 kts | 254° |
| 2026-05-05 10:50 | 40.75301 | 51.66845 | 35904 ft | 417 kts | 253° |
| 2026-05-05 10:50 | 40.74069 | 51.59372 | 35905 ft | 417 kts | 253° |
| 2026-05-05 10:51 | 40.72839 | 51.51942 | 35901 ft | 417 kts | 254° |
| 2026-05-05 10:51 | 40.72253 | 51.44289 | 35904 ft | 424 kts | 262° |
| 2026-05-05 10:52 | 40.71960 | 51.36564 | 35895 ft | 424 kts | 262° |
| 2026-05-05 10:52 | 40.71655 | 51.28800 | 35907 ft | 424 kts | 261° |
| 2026-05-05 10:53 | 40.71343 | 51.21093 | 35907 ft | 423 kts | 261° |
| 2026-05-05 10:53 | 40.71025 | 51.13395 | 35910 ft | 424 kts | 261° |
| 2026-05-05 10:54 | 40.70701 | 51.05695 | 35909 ft | 423 kts | 261° |
| 2026-05-05 10:54 | 40.70368 | 50.97938 | 35904 ft | 424 kts | 261° |
| 2026-05-05 10:55 | 40.70031 | 50.90196 | 35908 ft | 424 kts | 261° |
| 2026-05-05 10:55 | 40.69688 | 50.82436 | 35902 ft | 425 kts | 261° |
| 2026-05-05 10:56 | 40.69342 | 50.74714 | 35900 ft | 425 kts | 261° |
| 2026-05-05 10:56 | 40.68985 | 50.66911 | 35905 ft | 428 kts | 261° |
| 2026-05-05 10:57 | 40.68626 | 50.59140 | 35902 ft | 425 kts | 261° |
| 2026-05-05 10:57 | 40.68259 | 50.51345 | 35904 ft | 428 kts | 261° |
| 2026-05-05 10:58 | 40.67888 | 50.43545 | 35910 ft | 429 kts | 261° |
| 2026-05-05 10:58 | 40.67511 | 50.35747 | 35912 ft | 429 kts | 261° |
| 2026-05-05 10:59 | 40.67127 | 50.27935 | 35919 ft | 429 kts | 261° |
| 2026-05-05 10:59 | 40.66735 | 50.20070 | 35914 ft | 430 kts | 261° |
| 2026-05-05 11:00 | 40.66340 | 50.12238 | 35917 ft | 431 kts | 261° |
| 2026-05-05 11:00 | 40.65940 | 50.04412 | 35919 ft | 431 kts | 261° |
| 2026-05-05 11:01 | 40.65533 | 49.96563 | 35918 ft | 432 kts | 261° |
| 2026-05-05 11:01 | 40.65119 | 49.88668 | 35912 ft | 432 kts | 261° |
| 2026-05-05 11:02 | 40.64702 | 49.80821 | 35904 ft | 433 kts | 261° |
| 2026-05-05 11:02 | 40.64274 | 49.72893 | 35893 ft | 433 kts | 261° |
| 2026-05-05 11:03 | 40.63847 | 49.65055 | 35883 ft | 431 kts | 261° |
| 2026-05-05 11:03 | 40.63409 | 49.57148 | 35883 ft | 434 kts | 261° |
| 2026-05-05 11:04 | 40.62967 | 49.49267 | 35886 ft | 433 kts | 261° |
| 2026-05-05 11:04 | 40.62522 | 49.41396 | 35885 ft | 434 kts | 261° |
| 2026-05-05 11:05 | 40.62067 | 49.33454 | 35888 ft | 435 kts | 260° |
| 2026-05-05 11:05 | 40.61610 | 49.25571 | 35909 ft | 436 kts | 261° |
| 2026-05-05 11:06 | 40.61159 | 49.17652 | 35905 ft | 436 kts | 262° |
| 2026-05-05 11:06 | 40.61020 | 49.09652 | 35908 ft | 439 kts | 263° |
| 2026-05-05 11:07 | 40.60890 | 49.01650 | 35913 ft | 440 kts | 263° |
| 2026-05-05 11:07 | 40.60743 | 48.93630 | 35922 ft | 439 kts | 263° |
| 2026-05-05 11:08 | 40.60585 | 48.85629 | 35904 ft | 436 kts | 263° |
| 2026-05-05 11:08 | 40.60418 | 48.77684 | 35921 ft | 437 kts | 263° |
| 2026-05-05 11:09 | 40.60244 | 48.69709 | 35926 ft | 439 kts | 263° |
| 2026-05-05 11:09 | 40.60063 | 48.61710 | 35916 ft | 437 kts | 263° |
| 2026-05-05 11:10 | 40.59878 | 48.53756 | 35926 ft | 437 kts | 263° |
| 2026-05-05 11:10 | 40.59686 | 48.45777 | 35922 ft | 438 kts | 263° |
| 2026-05-05 11:11 | 40.59489 | 48.37802 | 35911 ft | 436 kts | 263° |
| 2026-05-05 11:11 | 40.59287 | 48.29864 | 35911 ft | 437 kts | 262° |
| 2026-05-05 11:12 | 40.59078 | 48.21873 | 35917 ft | 436 kts | 262° |
| 2026-05-05 11:12 | 40.58865 | 48.13942 | 35907 ft | 438 kts | 262° |
| 2026-05-05 11:13 | 40.58645 | 48.05962 | 35898 ft | 437 kts | 262° |
| 2026-05-05 11:13 | 40.58420 | 47.98020 | 35894 ft | 435 kts | 262° |
| 2026-05-05 11:14 | 40.58380 | 47.90036 | 35893 ft | 440 kts | 267° |
| 2026-05-05 11:14 | 40.58699 | 47.82019 | 35894 ft | 442 kts | 267° |
| 2026-05-05 11:15 | 40.58990 | 47.74018 | 35892 ft | 439 kts | 267° |
| 2026-05-05 11:15 | 40.59259 | 47.65991 | 35889 ft | 440 kts | 267° |
| 2026-05-05 11:16 | 40.59514 | 47.58001 | 35896 ft | 440 kts | 267° |
| 2026-05-05 11:16 | 40.59760 | 47.50015 | 35883 ft | 439 kts | 267° |
| 2026-05-05 11:17 | 40.59998 | 47.42012 | 35883 ft | 438 kts | 266° |
| 2026-05-05 11:17 | 40.60230 | 47.34005 | 35876 ft | 438 kts | 266° |
| 2026-05-05 11:18 | 40.60456 | 47.25995 | 35884 ft | 436 kts | 266° |
| 2026-05-05 11:18 | 40.60708 | 47.18071 | 35871 ft | 440 kts | 269° |
| 2026-05-05 11:19 | 40.61504 | 47.10062 | 35877 ft | 441 kts | 271° |
| 2026-05-05 11:19 | 40.62333 | 47.02088 | 35875 ft | 440 kts | 271° |
| 2026-05-05 11:20 | 40.63149 | 46.94115 | 35882 ft | 444 kts | 271° |
| 2026-05-05 11:20 | 40.63966 | 46.86087 | 35885 ft | 442 kts | 271° |
| 2026-05-05 11:21 | 40.64771 | 46.78091 | 35894 ft | 444 kts | 271° |
| 2026-05-05 11:21 | 40.65575 | 46.70047 | 35902 ft | 443 kts | 271° |
| 2026-05-05 11:22 | 40.66370 | 46.62036 | 35902 ft | 445 kts | 271° |
| 2026-05-05 11:22 | 40.67159 | 46.54024 | 35907 ft | 443 kts | 271° |
| 2026-05-05 11:23 | 40.67943 | 46.46008 | 35911 ft | 442 kts | 271° |
| 2026-05-05 11:23 | 40.68720 | 46.37989 | 35910 ft | 443 kts | 271° |
| 2026-05-05 11:24 | 40.69495 | 46.29943 | 35919 ft | 443 kts | 270° |
| 2026-05-05 11:24 | 40.70263 | 46.21911 | 35920 ft | 442 kts | 270° |
| 2026-05-05 11:25 | 40.71025 | 46.13885 | 35933 ft | 443 kts | 270° |
| 2026-05-05 11:25 | 40.71782 | 46.05845 | 35942 ft | 443 kts | 271° |
| 2026-05-05 11:26 | 40.72530 | 45.97838 | 35959 ft | 443 kts | 271° |
| 2026-05-05 11:26 | 40.73274 | 45.89808 | 35962 ft | 444 kts | 271° |
| 2026-05-05 11:27 | 40.74021 | 45.81692 | 35960 ft | 443 kts | 270° |
| 2026-05-05 11:27 | 40.74757 | 45.73622 | 35977 ft | 447 kts | 270° |
| 2026-05-05 11:28 | 40.75488 | 45.65546 | 35962 ft | 447 kts | 270° |
| 2026-05-05 11:28 | 40.76220 | 45.57405 | 35960 ft | 446 kts | 271° |
| 2026-05-05 11:29 | 40.76942 | 45.49289 | 35946 ft | 448 kts | 270° |
| 2026-05-05 11:29 | 40.77341 | 45.41121 | 35956 ft | 448 kts | 268° |
| 2026-05-05 11:30 | 40.77690 | 45.32976 | 35977 ft | 446 kts | 267° |
| 2026-05-05 11:30 | 40.78045 | 45.24841 | 35984 ft | 445 kts | 267° |
| 2026-05-05 11:31 | 40.78400 | 45.16699 | 35982 ft | 448 kts | 267° |
| 2026-05-05 11:31 | 40.78754 | 45.08546 | 35989 ft | 449 kts | 267° |
| 2026-05-05 11:32 | 40.79109 | 45.00294 | 35987 ft | 448 kts | 267° |
| 2026-05-05 11:32 | 40.79455 | 44.92135 | 35976 ft | 449 kts | 267° |
| 2026-05-05 11:33 | 40.79796 | 44.83950 | 35977 ft | 449 kts | 267° |
| 2026-05-05 11:33 | 40.80133 | 44.75737 | 35974 ft | 449 kts | 268° |
| 2026-05-05 11:34 | 40.80464 | 44.67506 | 35974 ft | 451 kts | 268° |
| 2026-05-05 11:34 | 40.80792 | 44.59226 | 35987 ft | 453 kts | 267° |
| 2026-05-05 11:35 | 40.81113 | 44.50958 | 35970 ft | 454 kts | 268° |
| 2026-05-05 11:35 | 40.81431 | 44.42638 | 35983 ft | 456 kts | 268° |
| 2026-05-05 11:36 | 40.81743 | 44.34294 | 36000 ft | 457 kts | 267° |
| 2026-05-05 11:36 | 40.82049 | 44.25996 | 36028 ft | 455 kts | 267° |
| 2026-05-05 11:37 | 40.82350 | 44.17653 | 36003 ft | 455 kts | 267° |
| 2026-05-05 11:37 | 40.82643 | 44.09302 | 35994 ft | 458 kts | 268° |
| 2026-05-05 11:38 | 40.82933 | 44.00943 | 36161 ft | 458 kts | 268° |
| 2026-05-05 11:38 | 40.83076 | 43.96759 | 36014 ft | 455 kts | 268° |
| 2026-05-05 11:38 | 40.83217 | 43.92596 | 35997 ft | 454 kts | 268° |
| 2026-05-05 11:39 | 40.83492 | 43.84257 | 35998 ft | 459 kts | 268° |
| 2026-05-05 11:39 | 40.83763 | 43.75891 | 35992 ft | 459 kts | 268° |
| 2026-05-05 11:40 | 40.84034 | 43.67451 | 36013 ft | 460 kts | 269° |
| 2026-05-05 11:40 | 40.84498 | 43.59084 | 36022 ft | 461 kts | 270° |
| 2026-05-05 11:41 | 40.84984 | 43.50687 | 36018 ft | 461 kts | 270° |
| 2026-05-05 11:41 | 40.85459 | 43.42189 | 36002 ft | 463 kts | 270° |
| 2026-05-05 11:42 | 40.85921 | 43.33734 | 35997 ft | 463 kts | 270° |
| 2026-05-05 11:42 | 40.86373 | 43.25325 | 36008 ft | 464 kts | 270° |
| 2026-05-05 11:43 | 40.86823 | 43.16822 | 36004 ft | 465 kts | 270° |
| 2026-05-05 11:43 | 40.87265 | 43.08326 | 35998 ft | 464 kts | 270° |
| 2026-05-05 11:44 | 40.87699 | 42.99858 | 35993 ft | 466 kts | 270° |
| 2026-05-05 11:44 | 40.88132 | 42.91304 | 35989 ft | 466 kts | 270° |
| 2026-05-05 11:45 | 40.88557 | 42.82760 | 35987 ft | 465 kts | 270° |
| 2026-05-05 11:45 | 40.88976 | 42.74235 | 35987 ft | 467 kts | 270° |
| 2026-05-05 11:46 | 40.89386 | 42.65751 | 35994 ft | 466 kts | 270° |
| 2026-05-05 11:46 | 40.89793 | 42.57191 | 35984 ft | 467 kts | 270° |
| 2026-05-05 11:47 | 40.90193 | 42.48634 | 35979 ft | 468 kts | 271° |
| 2026-05-05 11:47 | 40.90586 | 42.40107 | 35968 ft | 468 kts | 270° |
| 2026-05-05 11:48 | 40.91168 | 42.27226 | 35962 ft | 469 kts | 270° |
| 2026-05-05 11:48 | 40.91547 | 42.18631 | 35955 ft | 470 kts | 270° |
| 2026-05-05 11:49 | 40.91922 | 42.10024 | 35954 ft | 470 kts | 270° |
| 2026-05-05 11:49 | 40.92289 | 42.01434 | 35950 ft | 471 kts | 270° |
| 2026-05-05 11:50 | 40.92652 | 41.92765 | 35956 ft | 471 kts | 270° |
| 2026-05-05 11:50 | 40.93007 | 41.84169 | 35968 ft | 470 kts | 270° |
| 2026-05-05 11:51 | 40.93355 | 41.75571 | 35965 ft | 471 kts | 270° |
| 2026-05-05 11:51 | 40.93698 | 41.66933 | 35963 ft | 470 kts | 270° |
| 2026-05-05 11:52 | 40.94031 | 41.58372 | 35965 ft | 471 kts | 270° |
| 2026-05-05 11:52 | 40.94362 | 41.49717 | 35956 ft | 472 kts | 270° |
| 2026-05-05 11:53 | 40.94688 | 41.41040 | 35940 ft | 472 kts | 270° |
| 2026-05-05 11:53 | 40.95005 | 41.32405 | 35939 ft | 472 kts | 269° |
| 2026-05-05 11:54 | 40.95316 | 41.23738 | 35942 ft | 472 kts | 269° |
| 2026-05-05 11:54 | 40.95620 | 41.15105 | 35942 ft | 472 kts | 269° |
| 2026-05-05 11:55 | 40.95919 | 41.06451 | 35946 ft | 471 kts | 269° |
| 2026-05-05 11:55 | 40.96209 | 40.97831 | 35954 ft | 473 kts | 269° |
| 2026-05-05 11:56 | 40.96495 | 40.89186 | 35971 ft | 472 kts | 269° |
| 2026-05-05 11:56 | 40.96774 | 40.80514 | 35961 ft | 472 kts | 270° |
| 2026-05-05 11:57 | 40.97045 | 40.71865 | 35971 ft | 474 kts | 270° |
| 2026-05-05 11:57 | 40.97310 | 40.63183 | 35972 ft | 474 kts | 270° |
| 2026-05-05 11:58 | 40.97572 | 40.54448 | 35972 ft | 474 kts | 270° |
| 2026-05-05 11:58 | 40.97825 | 40.45816 | 35973 ft | 472 kts | 269° |
| 2026-05-05 11:59 | 40.98072 | 40.37126 | 35977 ft | 473 kts | 269° |
| 2026-05-05 11:59 | 40.98312 | 40.28437 | 35974 ft | 473 kts | 269° |
| 2026-05-05 12:00 | 40.98546 | 40.19760 | 35982 ft | 473 kts | 269° |
| 2026-05-05 12:00 | 40.98769 | 40.11131 | 35974 ft | 474 kts | 269° |
| 2026-05-05 12:01 | 40.98986 | 40.02417 | 35997 ft | 475 kts | 269° |
| 2026-05-05 12:01 | 40.99197 | 39.93734 | 36001 ft | 474 kts | 269° |
| 2026-05-05 12:02 | 40.99403 | 39.84999 | 36004 ft | 475 kts | 269° |
| 2026-05-05 12:02 | 40.99824 | 39.76315 | 36010 ft | 477 kts | 274° |
| 2026-05-05 12:03 | 41.00665 | 39.67627 | 36007 ft | 477 kts | 275° |
| 2026-05-05 12:03 | 41.01509 | 39.58871 | 36005 ft | 477 kts | 275° |
| 2026-05-05 12:04 | 41.02333 | 39.50207 | 36005 ft | 477 kts | 275° |
| 2026-05-05 12:04 | 41.03154 | 39.41496 | 35998 ft | 478 kts | 275° |
| 2026-05-05 12:05 | 41.03965 | 39.32808 | 35988 ft | 477 kts | 274° |
| 2026-05-05 12:05 | 41.04774 | 39.24065 | 35995 ft | 478 kts | 274° |
| 2026-05-05 12:06 | 41.05574 | 39.15315 | 35996 ft | 480 kts | 274° |
| 2026-05-05 12:06 | 41.06382 | 39.06566 | 35999 ft | 481 kts | 274° |
| 2026-05-05 12:07 | 41.07191 | 38.97815 | 35997 ft | 480 kts | 275° |
| 2026-05-05 12:07 | 41.07992 | 38.89045 | 36007 ft | 480 kts | 275° |
| 2026-05-05 12:08 | 41.08791 | 38.80245 | 36015 ft | 481 kts | 275° |
| 2026-05-05 12:08 | 41.09576 | 38.71512 | 36018 ft | 480 kts | 275° |
| 2026-05-05 12:09 | 41.10346 | 38.62718 | 36008 ft | 481 kts | 275° |
| 2026-05-05 12:09 | 41.11095 | 38.53912 | 36002 ft | 482 kts | 275° |
| 2026-05-05 12:10 | 41.11833 | 38.45073 | 36005 ft | 482 kts | 275° |
| 2026-05-05 12:10 | 41.12561 | 38.36291 | 36005 ft | 483 kts | 275° |
| 2026-05-05 12:11 | 41.13290 | 38.27406 | 36011 ft | 483 kts | 274° |
| 2026-05-05 12:11 | 41.14014 | 38.18583 | 36011 ft | 483 kts | 274° |
| 2026-05-05 12:12 | 41.14734 | 38.09749 | 36009 ft | 483 kts | 274° |
| 2026-05-05 12:12 | 41.15447 | 38.00898 | 36011 ft | 483 kts | 275° |
| 2026-05-05 12:13 | 41.16151 | 37.92081 | 36011 ft | 484 kts | 274° |
| 2026-05-05 12:13 | 41.16877 | 37.83190 | 36009 ft | 486 kts | 275° |
| 2026-05-05 12:14 | 41.17639 | 37.74288 | 36007 ft | 485 kts | 275° |
| 2026-05-05 12:14 | 41.18385 | 37.65460 | 36006 ft | 484 kts | 275° |
| 2026-05-05 12:15 | 41.19015 | 37.56536 | 36009 ft | 484 kts | 272° |
| 2026-05-05 12:15 | 41.19575 | 37.47694 | 36007 ft | 485 kts | 275° |
| 2026-05-05 12:16 | 41.20240 | 37.38812 | 36010 ft | 486 kts | 275° |
| 2026-05-05 12:16 | 41.20897 | 37.29920 | 36009 ft | 485 kts | 274° |
| 2026-05-05 12:17 | 41.21553 | 37.20990 | 36006 ft | 486 kts | 275° |
| 2026-05-05 12:17 | 41.22248 | 37.12089 | 36009 ft | 486 kts | 275° |
| 2026-05-05 12:18 | 41.22937 | 37.03200 | 36010 ft | 486 kts | 275° |
| 2026-05-05 12:18 | 41.23619 | 36.94304 | 36012 ft | 485 kts | 275° |
| 2026-05-05 12:19 | 41.24293 | 36.85406 | 36016 ft | 486 kts | 275° |
| 2026-05-05 12:19 | 41.24961 | 36.76485 | 36015 ft | 487 kts | 275° |
| 2026-05-05 12:20 | 41.25628 | 36.67489 | 36016 ft | 489 kts | 275° |
| 2026-05-05 12:20 | 41.26284 | 36.58534 | 36014 ft | 489 kts | 276° |
| 2026-05-05 12:21 | 41.27829 | 36.49817 | 36019 ft | 489 kts | 289° |
| 2026-05-05 12:21 | 41.30014 | 36.41266 | 36014 ft | 489 kts | 289° |
| 2026-05-05 12:22 | 41.32192 | 36.32733 | 36017 ft | 489 kts | 288° |
| 2026-05-05 12:22 | 41.34361 | 36.24191 | 36014 ft | 488 kts | 288° |
| 2026-05-05 12:23 | 41.36518 | 36.15660 | 36008 ft | 487 kts | 289° |
| 2026-05-05 12:23 | 41.38666 | 36.07130 | 36010 ft | 487 kts | 289° |
| 2026-05-05 12:24 | 41.40801 | 35.98620 | 36014 ft | 487 kts | 289° |
| 2026-05-05 12:24 | 41.42949 | 35.90022 | 36007 ft | 489 kts | 289° |
| 2026-05-05 12:25 | 41.45084 | 35.81446 | 36018 ft | 489 kts | 289° |
| 2026-05-05 12:25 | 41.47196 | 35.72928 | 36012 ft | 486 kts | 289° |
| 2026-05-05 12:26 | 41.49318 | 35.64342 | 36005 ft | 486 kts | 289° |
| 2026-05-05 12:26 | 41.51420 | 35.55802 | 35997 ft | 487 kts | 289° |
| 2026-05-05 12:27 | 41.53518 | 35.47252 | 36000 ft | 487 kts | 289° |
| 2026-05-05 12:27 | 41.55601 | 35.38734 | 35995 ft | 487 kts | 289° |
| 2026-05-05 12:28 | 41.57705 | 35.30093 | 35992 ft | 486 kts | 289° |
| 2026-05-05 12:28 | 41.59772 | 35.21576 | 36001 ft | 486 kts | 289° |
| 2026-05-05 12:29 | 41.61848 | 35.12989 | 35985 ft | 486 kts | 289° |
| 2026-05-05 12:29 | 41.63910 | 35.04424 | 35998 ft | 485 kts | 289° |
| 2026-05-05 12:30 | 41.65958 | 34.95892 | 35994 ft | 486 kts | 289° |
| 2026-05-05 12:30 | 41.68008 | 34.87316 | 35993 ft | 485 kts | 289° |
| 2026-05-05 12:31 | 41.70061 | 34.78695 | 35992 ft | 485 kts | 289° |
| 2026-05-05 12:31 | 41.72080 | 34.70186 | 35988 ft | 484 kts | 289° |
| 2026-05-05 12:32 | 41.74107 | 34.61607 | 35979 ft | 484 kts | 289° |
| 2026-05-05 12:32 | 41.76126 | 34.53035 | 35982 ft | 484 kts | 290° |
| 2026-05-05 12:33 | 41.78142 | 34.44438 | 35988 ft | 484 kts | 290° |
| 2026-05-05 12:33 | 41.80154 | 34.35832 | 35983 ft | 484 kts | 290° |
| 2026-05-05 12:34 | 41.82150 | 34.27255 | 35990 ft | 484 kts | 289° |
| 2026-05-05 12:34 | 41.84141 | 34.18671 | 35992 ft | 484 kts | 289° |
| 2026-05-05 12:35 | 41.86126 | 34.10080 | 35993 ft | 483 kts | 289° |
| 2026-05-05 12:35 | 41.88103 | 34.01485 | 36010 ft | 483 kts | 290° |
| 2026-05-05 12:36 | 41.90077 | 33.92876 | 36012 ft | 484 kts | 290° |
| 2026-05-05 12:36 | 41.92039 | 33.84280 | 36022 ft | 483 kts | 290° |
| 2026-05-05 12:37 | 41.93983 | 33.75736 | 36028 ft | 482 kts | 290° |
| 2026-05-05 12:37 | 41.95891 | 33.67077 | 36027 ft | 483 kts | 288° |
| 2026-05-05 12:38 | 41.97551 | 33.58370 | 36037 ft | 483 kts | 288° |
| 2026-05-05 12:38 | 41.99209 | 33.49652 | 36030 ft | 482 kts | 288° |
| 2026-05-05 12:39 | 42.00865 | 33.40950 | 36032 ft | 481 kts | 288° |
| 2026-05-05 12:39 | 42.02512 | 33.32283 | 36033 ft | 481 kts | 287° |
| 2026-05-05 12:40 | 42.04166 | 33.23549 | 36030 ft | 481 kts | 287° |
| 2026-05-05 12:40 | 42.05801 | 33.14894 | 36031 ft | 481 kts | 288° |
| 2026-05-05 12:41 | 42.07446 | 33.06170 | 36035 ft | 480 kts | 288° |
| 2026-05-05 12:41 | 42.09203 | 32.97604 | 36044 ft | 479 kts | 289° |
| 2026-05-05 12:42 | 42.10983 | 32.88937 | 36035 ft | 478 kts | 289° |
| 2026-05-05 12:42 | 42.12731 | 32.80373 | 36044 ft | 478 kts | 289° |
| 2026-05-05 12:43 | 42.14487 | 32.71715 | 36047 ft | 479 kts | 289° |
| 2026-05-05 12:43 | 42.16227 | 32.63092 | 36056 ft | 478 kts | 289° |
| 2026-05-05 12:44 | 42.17954 | 32.54488 | 36028 ft | 477 kts | 289° |
| 2026-05-05 12:44 | 42.19678 | 32.45851 | 36053 ft | 478 kts | 289° |
| 2026-05-05 12:45 | 42.21390 | 32.37232 | 36042 ft | 477 kts | 289° |
| 2026-05-05 12:45 | 42.23101 | 32.28586 | 36017 ft | 477 kts | 288° |
| 2026-05-05 12:46 | 42.24790 | 32.20010 | 35725 ft | 476 kts | 288° |
| 2026-05-05 12:46 | 42.26486 | 32.11325 | 35922 ft | 477 kts | 288° |
| 2026-05-05 12:47 | 42.28181 | 32.02663 | 36009 ft | 479 kts | 289° |
| 2026-05-05 12:47 | 42.29865 | 31.94028 | 36013 ft | 477 kts | 288° |
| 2026-05-05 12:48 | 42.31547 | 31.85360 | 36014 ft | 476 kts | 288° |
| 2026-05-05 12:48 | 42.33208 | 31.76759 | 36010 ft | 475 kts | 288° |
| 2026-05-05 12:49 | 42.34870 | 31.68127 | 36024 ft | 476 kts | 288° |
| 2026-05-05 12:49 | 42.36521 | 31.59508 | 36019 ft | 476 kts | 288° |
| 2026-05-05 12:50 | 42.38173 | 31.50847 | 36036 ft | 476 kts | 288° |
| 2026-05-05 12:50 | 42.39819 | 31.42174 | 36029 ft | 476 kts | 288° |
| 2026-05-05 12:51 | 42.41443 | 31.33582 | 36028 ft | 475 kts | 288° |
| 2026-05-05 12:51 | 42.43073 | 31.24911 | 36037 ft | 475 kts | 288° |
| 2026-05-05 12:52 | 42.44684 | 31.16310 | 36034 ft | 475 kts | 288° |
| 2026-05-05 12:52 | 42.46300 | 31.07643 | 36054 ft | 475 kts | 288° |
| 2026-05-05 12:53 | 42.47897 | 30.99019 | 36043 ft | 475 kts | 288° |
| 2026-05-05 12:53 | 42.49503 | 30.90312 | 36038 ft | 475 kts | 288° |
| 2026-05-05 12:54 | 42.51877 | 30.77353 | 36042 ft | 474 kts | 287° |
| 2026-05-05 12:55 | 42.53455 | 30.68704 | 36040 ft | 474 kts | 287° |
| 2026-05-05 12:55 | 42.55024 | 30.60060 | 36042 ft | 475 kts | 287° |
| 2026-05-05 12:56 | 42.56594 | 30.51372 | 36043 ft | 475 kts | 287° |
| 2026-05-05 12:56 | 42.58164 | 30.42637 | 36047 ft | 476 kts | 287° |
| 2026-05-05 12:57 | 42.59720 | 30.33946 | 36048 ft | 476 kts | 287° |
| 2026-05-05 12:57 | 42.62126 | 30.25734 | 36046 ft | 469 kts | 303° |
| 2026-05-05 12:58 | 42.66067 | 30.18763 | 36052 ft | 466 kts | 314° |
| 2026-05-05 12:58 | 42.70382 | 30.12196 | 36052 ft | 465 kts | 314° |
| 2026-05-05 12:59 | 42.74676 | 30.05641 | 36049 ft | 465 kts | 314° |
| 2026-05-05 12:59 | 42.78933 | 29.99121 | 36053 ft | 465 kts | 314° |
| 2026-05-05 13:00 | 42.85381 | 29.89212 | 36049 ft | 466 kts | 314° |
| 2026-05-05 13:01 | 42.93973 | 29.75950 | 36055 ft | 468 kts | 314° |
| 2026-05-05 13:01 | 42.98256 | 29.69315 | 36058 ft | 469 kts | 314° |
| 2026-05-05 13:02 | 43.02554 | 29.62643 | 36060 ft | 470 kts | 314° |
| 2026-05-05 13:02 | 43.06849 | 29.55959 | 36059 ft | 469 kts | 314° |
| 2026-05-05 13:03 | 43.11166 | 29.49224 | 36063 ft | 470 kts | 314° |
| 2026-05-05 13:03 | 43.15459 | 29.42512 | 36070 ft | 470 kts | 314° |
| 2026-05-05 13:04 | 43.19766 | 29.35763 | 36072 ft | 471 kts | 314° |
| 2026-05-05 13:04 | 43.24066 | 29.29009 | 36067 ft | 471 kts | 313° |
| 2026-05-05 13:05 | 43.28365 | 29.22239 | 36068 ft | 472 kts | 313° |
| 2026-05-05 13:05 | 43.32669 | 29.15446 | 36068 ft | 472 kts | 313° |
| 2026-05-05 13:06 | 43.36988 | 29.08615 | 36071 ft | 473 kts | 313° |
| 2026-05-05 13:06 | 43.41267 | 29.01829 | 36067 ft | 473 kts | 313° |
| 2026-05-05 13:07 | 43.45566 | 28.94997 | 36074 ft | 473 kts | 313° |
| 2026-05-05 13:07 | 43.49862 | 28.88153 | 36079 ft | 474 kts | 313° |
| 2026-05-05 13:08 | 43.54174 | 28.81267 | 36063 ft | 475 kts | 313° |
| 2026-05-05 13:08 | 43.58460 | 28.74407 | 36067 ft | 474 kts | 312° |
| 2026-05-05 13:09 | 43.62759 | 28.67508 | 36067 ft | 474 kts | 313° |
| 2026-05-05 13:09 | 43.67045 | 28.60614 | 36069 ft | 475 kts | 312° |
| 2026-05-05 13:10 | 43.71327 | 28.53711 | 36056 ft | 476 kts | 312° |
| 2026-05-05 13:10 | 43.75149 | 28.46225 | 36059 ft | 480 kts | 302° |
| 2026-05-05 13:11 | 43.78502 | 28.38251 | 36057 ft | 480 kts | 302° |
| 2026-05-05 13:11 | 43.81815 | 28.30317 | 36053 ft | 481 kts | 301° |
| 2026-05-05 13:12 | 43.85165 | 28.22267 | 36045 ft | 481 kts | 301° |
| 2026-05-05 13:12 | 43.88488 | 28.14253 | 36044 ft | 481 kts | 301° |
| 2026-05-05 13:13 | 43.91788 | 28.06273 | 36038 ft | 482 kts | 301° |
| 2026-05-05 13:13 | 43.95108 | 27.98219 | 36034 ft | 481 kts | 301° |
| 2026-05-05 13:14 | 43.98412 | 27.90181 | 36039 ft | 482 kts | 301° |
| 2026-05-05 13:14 | 44.01720 | 27.82108 | 36029 ft | 482 kts | 301° |
| 2026-05-05 13:15 | 44.05018 | 27.74040 | 36038 ft | 481 kts | 301° |
| 2026-05-05 13:15 | 44.08324 | 27.65928 | 36031 ft | 481 kts | 301° |
| 2026-05-05 13:16 | 44.11594 | 27.57880 | 36026 ft | 480 kts | 301° |
| 2026-05-05 13:16 | 44.14861 | 27.49817 | 36037 ft | 480 kts | 301° |
| 2026-05-05 13:17 | 44.18122 | 27.41747 | 36025 ft | 478 kts | 302° |
| 2026-05-05 13:17 | 44.21368 | 27.33691 | 36027 ft | 477 kts | 301° |
| 2026-05-05 13:18 | 44.24603 | 27.25641 | 36035 ft | 476 kts | 301° |
| 2026-05-05 13:18 | 44.27822 | 27.17605 | 36021 ft | 477 kts | 301° |
| 2026-05-05 13:19 | 44.31036 | 27.09558 | 36030 ft | 476 kts | 301° |
| 2026-05-05 13:19 | 44.34227 | 27.01550 | 36036 ft | 476 kts | 301° |
| 2026-05-05 13:20 | 44.37444 | 26.93450 | 36030 ft | 474 kts | 301° |
| 2026-05-05 13:20 | 44.40625 | 26.85418 | 36025 ft | 475 kts | 301° |
| 2026-05-05 13:21 | 44.43803 | 26.77370 | 36031 ft | 474 kts | 301° |
| 2026-05-05 13:21 | 44.46973 | 26.69322 | 36029 ft | 474 kts | 301° |
| 2026-05-05 13:22 | 44.50136 | 26.61267 | 36017 ft | 473 kts | 301° |
| 2026-05-05 13:22 | 44.53298 | 26.53194 | 36026 ft | 473 kts | 301° |
| 2026-05-05 13:23 | 44.56437 | 26.45153 | 36023 ft | 471 kts | 301° |
| 2026-05-05 13:23 | 44.59553 | 26.37148 | 36025 ft | 470 kts | 302° |
| 2026-05-05 13:24 | 44.62679 | 26.29095 | 36023 ft | 469 kts | 301° |
| 2026-05-05 13:24 | 44.65774 | 26.21100 | 36024 ft | 469 kts | 301° |
| 2026-05-05 13:25 | 44.68865 | 26.13092 | 36027 ft | 469 kts | 301° |
| 2026-05-05 13:25 | 44.71962 | 26.05046 | 36025 ft | 467 kts | 301° |
| 2026-05-05 13:26 | 44.75034 | 25.97040 | 36024 ft | 466 kts | 301° |
| 2026-05-05 13:26 | 44.78097 | 25.89036 | 36025 ft | 465 kts | 301° |
| 2026-05-05 13:27 | 44.81148 | 25.81039 | 36024 ft | 465 kts | 301° |
| 2026-05-05 13:27 | 44.84182 | 25.73064 | 36024 ft | 465 kts | 301° |
| 2026-05-05 13:28 | 44.87226 | 25.65039 | 36025 ft | 465 kts | 301° |
| 2026-05-05 13:28 | 44.90250 | 25.57044 | 36029 ft | 464 kts | 301° |
| 2026-05-05 13:29 | 44.93292 | 25.48980 | 36029 ft | 464 kts | 301° |
| 2026-05-05 13:29 | 44.96304 | 25.40972 | 36031 ft | 464 kts | 301° |
| 2026-05-05 13:30 | 44.99313 | 25.32944 | 36027 ft | 465 kts | 301° |
| 2026-05-05 13:30 | 45.02432 | 25.25016 | 36030 ft | 463 kts | 302° |
| 2026-05-05 13:31 | 45.05566 | 25.17130 | 36035 ft | 463 kts | 302° |
| 2026-05-05 13:31 | 45.08702 | 25.09203 | 36039 ft | 463 kts | 302° |
| 2026-05-05 13:32 | 45.11838 | 25.01246 | 36040 ft | 463 kts | 302° |
| 2026-05-05 13:32 | 45.14937 | 24.93352 | 36039 ft | 462 kts | 302° |
| 2026-05-05 13:33 | 45.18053 | 24.85391 | 36051 ft | 462 kts | 302° |
| 2026-05-05 13:33 | 45.21157 | 24.77438 | 36053 ft | 462 kts | 302° |
| 2026-05-05 13:34 | 45.24266 | 24.69446 | 36057 ft | 463 kts | 301° |
| 2026-05-05 13:34 | 45.27365 | 24.61458 | 36063 ft | 463 kts | 301° |
| 2026-05-05 13:35 | 45.30446 | 24.53494 | 36064 ft | 461 kts | 302° |
| 2026-05-05 13:35 | 45.33517 | 24.45532 | 36058 ft | 462 kts | 302° |
| 2026-05-05 13:36 | 45.36585 | 24.37552 | 36058 ft | 462 kts | 301° |
| 2026-05-05 13:36 | 45.39658 | 24.29537 | 36052 ft | 461 kts | 301° |
| 2026-05-05 13:37 | 45.42721 | 24.21526 | 36045 ft | 462 kts | 301° |
| 2026-05-05 13:37 | 45.45756 | 24.13565 | 36053 ft | 462 kts | 301° |
| 2026-05-05 13:38 | 45.48804 | 24.05547 | 36063 ft | 461 kts | 301° |
| 2026-05-05 13:38 | 45.51835 | 23.97551 | 36072 ft | 461 kts | 300° |
| 2026-05-05 13:39 | 45.54872 | 23.89512 | 36079 ft | 461 kts | 300° |
| 2026-05-05 13:39 | 45.57900 | 23.81476 | 36078 ft | 460 kts | 300° |
| 2026-05-05 13:40 | 45.60911 | 23.73460 | 36078 ft | 460 kts | 300° |
| 2026-05-05 13:40 | 45.63935 | 23.65388 | 36072 ft | 460 kts | 300° |
| 2026-05-05 13:41 | 45.66927 | 23.57375 | 36065 ft | 459 kts | 300° |
| 2026-05-05 13:41 | 45.69914 | 23.49354 | 36065 ft | 460 kts | 300° |
| 2026-05-05 13:42 | 45.72918 | 23.41264 | 36054 ft | 460 kts | 300° |
| 2026-05-05 13:42 | 45.75904 | 23.33201 | 36034 ft | 461 kts | 300° |
| 2026-05-05 13:43 | 45.78879 | 23.25137 | 36017 ft | 460 kts | 300° |
| 2026-05-05 13:43 | 45.81852 | 23.17059 | 36009 ft | 459 kts | 299° |
| 2026-05-05 13:44 | 45.84815 | 23.08982 | 36002 ft | 459 kts | 299° |
| 2026-05-05 13:44 | 45.87762 | 23.00925 | 36003 ft | 459 kts | 299° |
| 2026-05-05 13:45 | 45.90710 | 22.92839 | 36007 ft | 458 kts | 299° |
| 2026-05-05 13:45 | 45.93662 | 22.84721 | 36008 ft | 460 kts | 299° |
| 2026-05-05 13:46 | 45.96612 | 22.76583 | 36000 ft | 460 kts | 299° |
| 2026-05-05 13:46 | 45.99540 | 22.68483 | 35996 ft | 460 kts | 299° |
| 2026-05-05 13:47 | 46.02482 | 22.60317 | 35991 ft | 460 kts | 299° |
| 2026-05-05 13:47 | 46.05401 | 22.52190 | 35996 ft | 460 kts | 299° |
| 2026-05-05 13:48 | 46.08317 | 22.44043 | 35999 ft | 459 kts | 299° |
| 2026-05-05 13:48 | 46.11239 | 22.35862 | 35996 ft | 460 kts | 298° |
| 2026-05-05 13:49 | 46.14156 | 22.27668 | 35990 ft | 460 kts | 298° |
| 2026-05-05 13:49 | 46.17062 | 22.19482 | 35978 ft | 461 kts | 298° |
| 2026-05-05 13:50 | 46.19961 | 22.11287 | 35985 ft | 461 kts | 298° |
| 2026-05-05 13:50 | 46.22864 | 22.03056 | 35988 ft | 460 kts | 298° |
| 2026-05-05 13:51 | 46.25741 | 21.94874 | 35982 ft | 460 kts | 297° |
| 2026-05-05 13:51 | 46.28641 | 21.86599 | 35980 ft | 460 kts | 297° |
| 2026-05-05 13:52 | 46.31508 | 21.78395 | 35978 ft | 461 kts | 297° |
| 2026-05-05 13:52 | 46.34396 | 21.70104 | 35974 ft | 461 kts | 297° |
| 2026-05-05 13:53 | 46.37262 | 21.61848 | 35971 ft | 460 kts | 297° |
| 2026-05-05 13:53 | 46.40110 | 21.53622 | 35963 ft | 460 kts | 297° |
| 2026-05-05 13:54 | 46.42958 | 21.45371 | 35960 ft | 460 kts | 297° |
| 2026-05-05 13:54 | 46.45800 | 21.37110 | 35959 ft | 460 kts | 297° |
| 2026-05-05 13:55 | 46.48637 | 21.28836 | 35954 ft | 461 kts | 296° |
| 2026-05-05 13:55 | 46.51527 | 21.20475 | 36169 ft | 469 kts | 297° |
| 2026-05-05 13:56 | 46.52991 | 21.16268 | 36716 ft | 466 kts | 297° |
| 2026-05-05 13:56 | 46.54444 | 21.12086 | 37483 ft | 461 kts | 297° |
| 2026-05-05 13:56 | 46.55867 | 21.07982 | 37956 ft | 461 kts | 297° |
| 2026-05-05 13:56 | 46.57300 | 21.03840 | 37956 ft | 463 kts | 297° |
| 2026-05-05 13:57 | 46.60167 | 20.95535 | 37953 ft | 460 kts | 297° |
| 2026-05-05 13:57 | 46.63019 | 20.87243 | 37955 ft | 461 kts | 296° |
| 2026-05-05 13:58 | 46.65881 | 20.78899 | 37949 ft | 461 kts | 296° |
| 2026-05-05 13:58 | 46.68714 | 20.70609 | 37948 ft | 461 kts | 296° |
| 2026-05-05 13:59 | 46.72979 | 20.58081 | 37943 ft | 462 kts | 296° |
| 2026-05-05 14:00 | 46.77231 | 20.45531 | 37936 ft | 462 kts | 296° |
| 2026-05-05 14:00 | 46.80051 | 20.37171 | 37933 ft | 461 kts | 296° |
| 2026-05-05 14:01 | 46.82880 | 20.28760 | 37934 ft | 462 kts | 295° |
| 2026-05-05 14:01 | 46.85688 | 20.20387 | 37933 ft | 461 kts | 295° |
| 2026-05-05 14:02 | 46.88488 | 20.12005 | 37928 ft | 461 kts | 295° |
| 2026-05-05 14:02 | 46.91291 | 20.03593 | 37932 ft | 461 kts | 295° |
| 2026-05-05 14:03 | 46.94089 | 19.95165 | 37931 ft | 463 kts | 295° |
| 2026-05-05 14:03 | 46.96890 | 19.86701 | 37930 ft | 463 kts | 295° |
| 2026-05-05 14:04 | 46.99681 | 19.78239 | 37925 ft | 463 kts | 295° |
| 2026-05-05 14:04 | 47.02462 | 19.69780 | 37925 ft | 462 kts | 295° |
| 2026-05-05 14:05 | 47.05249 | 19.61276 | 37928 ft | 463 kts | 295° |
| 2026-05-05 14:05 | 47.08030 | 19.52763 | 37925 ft | 462 kts | 295° |
| 2026-05-05 14:06 | 47.10782 | 19.44309 | 37923 ft | 463 kts | 295° |
| 2026-05-05 14:06 | 47.13549 | 19.35783 | 37917 ft | 463 kts | 295° |
| 2026-05-05 14:07 | 47.16308 | 19.27249 | 37918 ft | 463 kts | 294° |
| 2026-05-05 14:07 | 47.19055 | 19.18727 | 37913 ft | 464 kts | 294° |
| 2026-05-05 14:08 | 47.21785 | 19.10226 | 37907 ft | 463 kts | 294° |
| 2026-05-05 14:08 | 47.24530 | 19.01654 | 37908 ft | 463 kts | 294° |
| 2026-05-05 14:09 | 47.27263 | 18.93088 | 37904 ft | 463 kts | 294° |
| 2026-05-05 14:09 | 47.29980 | 18.84543 | 37906 ft | 462 kts | 294° |
| 2026-05-05 14:10 | 47.32683 | 18.76016 | 37909 ft | 463 kts | 294° |
| 2026-05-05 14:10 | 47.35392 | 18.67436 | 37912 ft | 463 kts | 294° |
| 2026-05-05 14:11 | 47.38107 | 18.58809 | 37907 ft | 463 kts | 294° |
| 2026-05-05 14:11 | 47.40801 | 18.50225 | 37905 ft | 463 kts | 294° |
| 2026-05-05 14:12 | 47.43486 | 18.41640 | 37899 ft | 462 kts | 294° |
| 2026-05-05 14:12 | 47.46175 | 18.33013 | 37902 ft | 462 kts | 293° |
| 2026-05-05 14:13 | 47.48846 | 18.24410 | 37900 ft | 462 kts | 293° |
| 2026-05-05 14:13 | 47.51501 | 18.15831 | 37885 ft | 462 kts | 293° |
| 2026-05-05 14:14 | 47.54158 | 18.07216 | 37884 ft | 462 kts | 293° |
| 2026-05-05 14:14 | 47.56805 | 17.98602 | 37880 ft | 461 kts | 293° |
| 2026-05-05 14:15 | 47.59450 | 17.89966 | 37889 ft | 462 kts | 293° |
| 2026-05-05 14:15 | 47.62088 | 17.81323 | 37893 ft | 462 kts | 293° |
| 2026-05-05 14:16 | 47.64728 | 17.72645 | 37889 ft | 462 kts | 293° |
| 2026-05-05 14:16 | 47.67347 | 17.64006 | 37874 ft | 461 kts | 293° |
| 2026-05-05 14:17 | 47.69977 | 17.55298 | 37851 ft | 462 kts | 293° |
| 2026-05-05 14:17 | 47.72575 | 17.46668 | 37857 ft | 462 kts | 293° |
| 2026-05-05 14:18 | 47.75180 | 17.37980 | 37838 ft | 462 kts | 293° |
| 2026-05-05 14:18 | 47.77768 | 17.29320 | 37842 ft | 461 kts | 292° |
| 2026-05-05 14:19 | 47.80365 | 17.20605 | 37838 ft | 461 kts | 292° |
| 2026-05-05 14:19 | 47.82940 | 17.11927 | 37835 ft | 461 kts | 292° |
| 2026-05-05 14:20 | 47.85503 | 17.03200 | 37829 ft | 460 kts | 292° |
| 2026-05-05 14:20 | 47.88044 | 16.94498 | 37823 ft | 460 kts | 292° |
| 2026-05-05 14:21 | 47.90578 | 16.85792 | 37808 ft | 460 kts | 292° |
| 2026-05-05 14:21 | 47.93111 | 16.77057 | 37804 ft | 460 kts | 292° |
| 2026-05-05 14:22 | 47.95631 | 16.68337 | 37817 ft | 460 kts | 292° |
| 2026-05-05 14:22 | 47.98145 | 16.59606 | 37806 ft | 459 kts | 292° |
| 2026-05-05 14:23 | 48.00658 | 16.50851 | 37809 ft | 461 kts | 292° |
| 2026-05-05 14:23 | 48.03159 | 16.42102 | 37798 ft | 460 kts | 292° |
| 2026-05-05 14:24 | 48.05664 | 16.33308 | 37785 ft | 459 kts | 291° |
| 2026-05-05 14:24 | 48.08136 | 16.24600 | 37785 ft | 458 kts | 291° |
| 2026-05-05 14:25 | 48.10616 | 16.15829 | 37792 ft | 459 kts | 291° |
| 2026-05-05 14:25 | 48.13088 | 16.07059 | 37781 ft | 458 kts | 291° |
| 2026-05-05 14:26 | 48.15544 | 15.98316 | 37766 ft | 459 kts | 291° |
| 2026-05-05 14:26 | 48.18010 | 15.89495 | 37746 ft | 459 kts | 291° |
| 2026-05-05 14:27 | 48.20464 | 15.80691 | 37751 ft | 459 kts | 291° |
| 2026-05-05 14:27 | 48.22899 | 15.71920 | 37755 ft | 459 kts | 291° |
| 2026-05-05 14:28 | 48.25335 | 15.63113 | 37767 ft | 458 kts | 291° |
| 2026-05-05 14:28 | 48.27764 | 15.54298 | 37772 ft | 457 kts | 291° |
| 2026-05-05 14:29 | 48.30176 | 15.45513 | 37775 ft | 457 kts | 291° |
| 2026-05-05 14:29 | 48.32600 | 15.36652 | 37775 ft | 459 kts | 291° |
| 2026-05-05 14:30 | 48.34998 | 15.27856 | 37777 ft | 456 kts | 290° |
| 2026-05-05 14:30 | 48.37408 | 15.18976 | 37779 ft | 457 kts | 290° |
| 2026-05-05 14:31 | 48.39790 | 15.10169 | 37782 ft | 456 kts | 290° |
| 2026-05-05 14:31 | 48.42160 | 15.01374 | 37786 ft | 457 kts | 290° |
| 2026-05-05 14:32 | 48.44534 | 14.92533 | 37785 ft | 457 kts | 290° |
| 2026-05-05 14:32 | 48.46903 | 14.83674 | 37787 ft | 456 kts | 290° |
| 2026-05-05 14:33 | 48.49253 | 14.74855 | 37796 ft | 457 kts | 290° |
| 2026-05-05 14:33 | 48.51613 | 14.65963 | 37790 ft | 457 kts | 290° |
| 2026-05-05 14:34 | 48.53970 | 14.57049 | 37773 ft | 458 kts | 290° |
| 2026-05-05 14:34 | 48.56313 | 14.48153 | 37762 ft | 457 kts | 290° |
| 2026-05-05 14:35 | 48.58641 | 14.39278 | 37763 ft | 456 kts | 290° |
| 2026-05-05 14:35 | 48.60976 | 14.30345 | 37769 ft | 457 kts | 289° |
| 2026-05-05 14:36 | 48.63288 | 14.21464 | 37773 ft | 457 kts | 289° |
| 2026-05-05 14:36 | 48.65610 | 14.12510 | 37765 ft | 457 kts | 289° |
| 2026-05-05 14:37 | 48.67913 | 14.03605 | 37774 ft | 459 kts | 289° |
| 2026-05-05 14:37 | 48.70230 | 13.94599 | 37782 ft | 458 kts | 289° |
| 2026-05-05 14:38 | 48.72519 | 13.85661 | 37785 ft | 458 kts | 289° |
| 2026-05-05 14:38 | 48.74804 | 13.76710 | 37787 ft | 458 kts | 289° |
| 2026-05-05 14:39 | 48.77065 | 13.67742 | 37788 ft | 458 kts | 288° |
| 2026-05-05 14:39 | 48.79223 | 13.58707 | 37786 ft | 458 kts | 288° |
| 2026-05-05 14:40 | 48.81387 | 13.49613 | 37785 ft | 457 kts | 288° |
| 2026-05-05 14:40 | 48.83526 | 13.40606 | 37784 ft | 457 kts | 288° |
| 2026-05-05 14:41 | 48.85672 | 13.31538 | 37782 ft | 456 kts | 287° |
| 2026-05-05 14:41 | 48.87803 | 13.22499 | 37782 ft | 456 kts | 287° |
| 2026-05-05 14:42 | 48.89939 | 13.13397 | 37778 ft | 457 kts | 287° |
| 2026-05-05 14:42 | 48.92062 | 13.04324 | 37761 ft | 457 kts | 287° |
| 2026-05-05 14:43 | 48.94187 | 12.95198 | 37767 ft | 458 kts | 287° |
| 2026-05-05 14:43 | 48.96296 | 12.86101 | 37764 ft | 459 kts | 287° |
| 2026-05-05 14:44 | 48.98410 | 12.76946 | 37763 ft | 458 kts | 287° |
| 2026-05-05 14:44 | 49.00506 | 12.67834 | 37769 ft | 458 kts | 287° |
| 2026-05-05 14:45 | 49.02604 | 12.58669 | 37762 ft | 460 kts | 287° |
| 2026-05-05 14:45 | 49.04692 | 12.49513 | 37760 ft | 460 kts | 286° |
| 2026-05-05 14:46 | 49.06782 | 12.40306 | 37752 ft | 460 kts | 287° |
| 2026-05-05 14:46 | 49.08847 | 12.31168 | 37752 ft | 460 kts | 286° |
| 2026-05-05 14:47 | 49.10927 | 12.21927 | 37747 ft | 459 kts | 285° |
| 2026-05-05 14:47 | 49.12988 | 12.12725 | 37754 ft | 461 kts | 286° |
| 2026-05-05 14:48 | 49.15044 | 12.03511 | 37760 ft | 461 kts | 286° |
| 2026-05-05 14:48 | 49.17091 | 11.94291 | 37772 ft | 460 kts | 285° |
| 2026-05-05 14:49 | 49.19145 | 11.85004 | 37777 ft | 462 kts | 285° |
| 2026-05-05 14:49 | 49.21186 | 11.75735 | 37785 ft | 462 kts | 285° |
| 2026-05-05 14:50 | 49.23219 | 11.66458 | 37781 ft | 463 kts | 285° |
| 2026-05-05 14:50 | 49.25256 | 11.57117 | 37776 ft | 464 kts | 285° |
| 2026-05-05 14:51 | 49.27286 | 11.47768 | 37779 ft | 465 kts | 285° |
| 2026-05-05 14:51 | 49.29308 | 11.38418 | 37778 ft | 465 kts | 285° |
| 2026-05-05 14:52 | 49.31329 | 11.29027 | 37778 ft | 467 kts | 284° |
| 2026-05-05 14:52 | 49.33348 | 11.19599 | 37785 ft | 469 kts | 284° |
| 2026-05-05 14:53 | 49.35372 | 11.10106 | 37793 ft | 470 kts | 284° |
| 2026-05-05 14:53 | 49.37382 | 11.00632 | 37801 ft | 470 kts | 284° |
| 2026-05-05 14:54 | 49.39642 | 10.91237 | 37794 ft | 476 kts | 292° |
| 2026-05-05 14:54 | 49.42613 | 10.82141 | 37797 ft | 476 kts | 293° |
| 2026-05-05 14:55 | 49.45576 | 10.73066 | 37778 ft | 477 kts | 293° |
| 2026-05-05 14:55 | 49.48523 | 10.63982 | 37798 ft | 477 kts | 293° |
| 2026-05-05 14:56 | 49.51456 | 10.54880 | 37789 ft | 478 kts | 292° |
| 2026-05-05 14:56 | 49.54396 | 10.45719 | 37799 ft | 478 kts | 292° |
| 2026-05-05 14:57 | 49.57318 | 10.36574 | 37781 ft | 478 kts | 292° |
| 2026-05-05 14:57 | 49.60242 | 10.27385 | 37788 ft | 477 kts | 291° |
| 2026-05-05 14:58 | 49.63139 | 10.18246 | 37785 ft | 477 kts | 292° |
| 2026-05-05 14:58 | 49.66027 | 10.09104 | 37787 ft | 477 kts | 292° |
| 2026-05-05 14:59 | 49.68919 | 9.99909 | 37787 ft | 478 kts | 292° |
| 2026-05-05 14:59 | 49.71820 | 9.90656 | 37803 ft | 478 kts | 292° |
| 2026-05-05 15:00 | 49.74200 | 9.83034 | 37804 ft | 480 kts | 292° |
| 2026-05-05 15:00 | 49.77569 | 9.72213 | 37814 ft | 478 kts | 292° |
| 2026-05-05 15:01 | 49.80443 | 9.62938 | 37826 ft | 479 kts | 292° |
| 2026-05-05 15:01 | 49.83315 | 9.53644 | 37831 ft | 481 kts | 292° |
| 2026-05-05 15:02 | 49.86170 | 9.44361 | 37824 ft | 480 kts | 292° |
| 2026-05-05 15:02 | 49.89020 | 9.35062 | 37821 ft | 481 kts | 292° |
| 2026-05-05 15:03 | 49.91880 | 9.25693 | 37825 ft | 479 kts | 291° |
| 2026-05-05 15:03 | 49.94716 | 9.16368 | 37829 ft | 480 kts | 291° |
| 2026-05-05 15:04 | 49.97550 | 9.07015 | 37839 ft | 480 kts | 291° |
| 2026-05-05 15:04 | 50.00377 | 8.97648 | 37828 ft | 480 kts | 291° |
| 2026-05-05 15:05 | 50.04398 | 8.83545 | 37819 ft | 476 kts | 283° |
| 2026-05-05 15:06 | 50.05422 | 8.73480 | 37833 ft | 466 kts | 267° |
| 2026-05-05 15:06 | 50.05412 | 8.63456 | 37833 ft | 467 kts | 266° |
| 2026-05-05 15:07 | 50.05338 | 8.53405 | 37834 ft | 467 kts | 265° |
| 2026-05-05 15:07 | 50.05237 | 8.43358 | 37834 ft | 468 kts | 266° |
| 2026-05-05 15:08 | 50.05116 | 8.33214 | 37835 ft | 468 kts | 265° |
| 2026-05-05 15:08 | 50.04982 | 8.23165 | 37845 ft | 469 kts | 265° |
| 2026-05-05 15:09 | 50.04835 | 8.13020 | 37833 ft | 470 kts | 265° |
| 2026-05-05 15:09 | 50.04684 | 8.02899 | 37837 ft | 470 kts | 265° |
| 2026-05-05 15:10 | 50.04537 | 7.92723 | 37830 ft | 471 kts | 265° |
| 2026-05-05 15:10 | 50.04383 | 7.82644 | 37827 ft | 470 kts | 265° |
| 2026-05-05 15:11 | 50.04216 | 7.72454 | 37833 ft | 472 kts | 265° |
| 2026-05-05 15:11 | 50.04041 | 7.62277 | 37845 ft | 472 kts | 265° |
| 2026-05-05 15:12 | 50.03857 | 7.52144 | 37841 ft | 472 kts | 265° |
| 2026-05-05 15:12 | 50.03665 | 7.42006 | 37853 ft | 473 kts | 265° |
| 2026-05-05 15:13 | 50.03463 | 7.31834 | 37840 ft | 472 kts | 264° |
| 2026-05-05 15:13 | 50.03251 | 7.21606 | 37840 ft | 473 kts | 264° |
| 2026-05-05 15:14 | 50.03029 | 7.11419 | 37831 ft | 474 kts | 264° |
| 2026-05-05 15:14 | 50.02796 | 7.01229 | 37828 ft | 474 kts | 264° |
| 2026-05-05 15:15 | 50.02553 | 6.91007 | 37832 ft | 475 kts | 264° |
| 2026-05-05 15:15 | 50.02301 | 6.80769 | 37833 ft | 476 kts | 264° |
| 2026-05-05 15:16 | 50.01654 | 6.70648 | 37824 ft | 470 kts | 253° |
| 2026-05-05 15:16 | 49.99533 | 6.61146 | 37813 ft | 467 kts | 246° |
| 2026-05-05 15:17 | 49.97130 | 6.51832 | 37826 ft | 465 kts | 244° |
| 2026-05-05 15:17 | 49.94529 | 6.42610 | 37820 ft | 469 kts | 244° |
| 2026-05-05 15:18 | 49.91927 | 6.33404 | 37808 ft | 468 kts | 243° |
| 2026-05-05 15:18 | 49.89318 | 6.24190 | 37821 ft | 467 kts | 243° |
| 2026-05-05 15:19 | 49.86704 | 6.15042 | 37822 ft | 467 kts | 240° |
| 2026-05-05 15:19 | 49.83217 | 6.06612 | 37825 ft | 465 kts | 232° |
| 2026-05-05 15:20 | 49.79474 | 5.98471 | 37814 ft | 465 kts | 232° |
| 2026-05-05 15:20 | 49.75736 | 5.90361 | 37823 ft | 466 kts | 233° |
| 2026-05-05 15:21 | 49.72853 | 5.81348 | 37810 ft | 472 kts | 248° |
| 2026-05-05 15:21 | 49.70658 | 5.71896 | 37827 ft | 472 kts | 248° |
| 2026-05-05 15:22 | 49.68450 | 5.62397 | 37824 ft | 472 kts | 248° |
| 2026-05-05 15:22 | 49.67349 | 5.57679 | 37687 ft | 466 kts | 248° |
| 2026-05-05 15:22 | 49.66250 | 5.52985 | 36969 ft | 467 kts | 248° |
| 2026-05-05 15:22 | 49.65136 | 5.48242 | 36181 ft | 471 kts | 248° |
| 2026-05-05 15:23 | 49.64034 | 5.43558 | 35713 ft | 478 kts | 248° |
| 2026-05-05 15:23 | 49.62896 | 5.38738 | 34717 ft | 486 kts | 247° |
| 2026-05-05 15:23 | 49.61765 | 5.33817 | 33980 ft | 484 kts | 248° |
| 2026-05-05 15:23 | 49.60734 | 5.28960 | 33435 ft | 477 kts | 249° |
| 2026-05-05 15:24 | 49.59786 | 5.24118 | 32891 ft | 473 kts | 254° |
| 2026-05-05 15:24 | 49.59293 | 5.19156 | 32338 ft | 470 kts | 263° |
| 2026-05-05 15:24 | 49.59233 | 5.14141 | 31787 ft | 466 kts | 268° |
| 2026-05-05 15:24 | 49.59264 | 5.09223 | 31240 ft | 461 kts | 268° |
| 2026-05-05 15:25 | 49.59301 | 5.04304 | 30686 ft | 456 kts | 269° |
| 2026-05-05 15:25 | 49.59336 | 4.99488 | 30126 ft | 451 kts | 269° |
| 2026-05-05 15:25 | 49.59370 | 4.94721 | 29587 ft | 446 kts | 269° |
| 2026-05-05 15:25 | 49.59402 | 4.89957 | 29062 ft | 441 kts | 269° |
| 2026-05-05 15:26 | 49.59432 | 4.85266 | 28542 ft | 436 kts | 269° |
| 2026-05-05 15:26 | 49.59460 | 4.80664 | 28020 ft | 432 kts | 269° |
| 2026-05-05 15:26 | 49.59487 | 4.76104 | 27506 ft | 427 kts | 269° |
| 2026-05-05 15:26 | 49.59511 | 4.71558 | 26936 ft | 426 kts | 269° |
| 2026-05-05 15:27 | 49.59533 | 4.66958 | 26368 ft | 424 kts | 269° |
| 2026-05-05 15:27 | 49.59553 | 4.62510 | 25824 ft | 421 kts | 269° |
| 2026-05-05 15:27 | 49.59573 | 4.57984 | 25278 ft | 417 kts | 269° |
| 2026-05-05 15:27 | 49.59590 | 4.53599 | 24749 ft | 413 kts | 269° |
| 2026-05-05 15:28 | 49.59605 | 4.49189 | 24217 ft | 409 kts | 269° |
| 2026-05-05 15:28 | 49.59618 | 4.44857 | 23692 ft | 405 kts | 269° |
| 2026-05-05 15:28 | 49.59630 | 4.40513 | 23179 ft | 402 kts | 269° |
| 2026-05-05 15:28 | 49.59640 | 4.36252 | 22669 ft | 398 kts | 269° |
| 2026-05-05 15:29 | 49.59649 | 4.32040 | 22159 ft | 395 kts | 268° |
| 2026-05-05 15:29 | 49.59656 | 4.27807 | 21647 ft | 392 kts | 268° |
| 2026-05-05 15:29 | 49.59661 | 4.23649 | 21142 ft | 389 kts | 268° |
| 2026-05-05 15:29 | 49.59665 | 4.19542 | 20643 ft | 386 kts | 268° |
| 2026-05-05 15:30 | 49.59667 | 4.15395 | 20137 ft | 382 kts | 268° |
| 2026-05-05 15:30 | 49.59628 | 4.11345 | 19641 ft | 378 kts | 263° |
| 2026-05-05 15:30 | 49.59172 | 4.07412 | 19151 ft | 372 kts | 251° |
| 2026-05-05 15:30 | 49.58211 | 4.03769 | 18670 ft | 365 kts | 239° |
| 2026-05-05 15:31 | 49.56938 | 4.00474 | 18212 ft | 362 kts | 236° |
| 2026-05-05 15:31 | 49.55597 | 3.97173 | 17745 ft | 360 kts | 236° |
| 2026-05-05 15:31 | 49.54268 | 3.93954 | 17282 ft | 360 kts | 236° |
| 2026-05-05 15:31 | 49.52912 | 3.90708 | 16812 ft | 359 kts | 236° |
| 2026-05-05 15:32 | 49.51564 | 3.87497 | 16345 ft | 358 kts | 236° |
| 2026-05-05 15:32 | 49.50219 | 3.84303 | 15884 ft | 358 kts | 236° |
| 2026-05-05 15:32 | 49.48868 | 3.81103 | 15411 ft | 356 kts | 236° |
| 2026-05-05 15:32 | 49.47640 | 3.77835 | 14942 ft | 354 kts | 247° |
| 2026-05-05 15:33 | 49.46884 | 3.74290 | 14489 ft | 354 kts | 255° |
| 2026-05-05 15:33 | 49.46257 | 3.70637 | 14028 ft | 352 kts | 256° |
| 2026-05-05 15:33 | 49.45654 | 3.67039 | 13572 ft | 350 kts | 256° |
| 2026-05-05 15:33 | 49.45051 | 3.63446 | 13122 ft | 347 kts | 256° |
| 2026-05-05 15:34 | 49.44444 | 3.59851 | 12668 ft | 345 kts | 256° |
| 2026-05-05 15:34 | 49.43847 | 3.56329 | 12223 ft | 343 kts | 256° |
| 2026-05-05 15:34 | 49.43252 | 3.52823 | 11780 ft | 340 kts | 256° |
| 2026-05-05 15:34 | 49.42653 | 3.49306 | 11335 ft | 338 kts | 256° |
| 2026-05-05 15:35 | 49.42054 | 3.45846 | 10892 ft | 336 kts | 253° |
| 2026-05-05 15:35 | 49.41251 | 3.42492 | 10571 ft | 332 kts | 248° |
| 2026-05-05 15:35 | 49.40378 | 3.39229 | 10460 ft | 335 kts | 248° |
| 2026-05-05 15:35 | 49.39503 | 3.35983 | 10324 ft | 323 kts | 248° |
| 2026-05-05 15:36 | 49.38659 | 3.32844 | 10167 ft | 312 kts | 247° |
| 2026-05-05 15:36 | 49.37854 | 3.29847 | 10011 ft | 302 kts | 247° |
| 2026-05-05 15:36 | 49.37071 | 3.26928 | 9856 ft | 292 kts | 247° |
| 2026-05-05 15:36 | 49.36302 | 3.24067 | 9697 ft | 285 kts | 247° |
| 2026-05-05 15:37 | 49.35547 | 3.21261 | 9538 ft | 285 kts | 248° |
| 2026-05-05 15:37 | 49.34795 | 3.18471 | 9374 ft | 284 kts | 248° |
| 2026-05-05 15:37 | 49.34048 | 3.15702 | 9211 ft | 284 kts | 248° |
| 2026-05-05 15:37 | 49.33293 | 3.12903 | 9044 ft | 283 kts | 248° |
| 2026-05-05 15:38 | 49.32545 | 3.10136 | 8883 ft | 282 kts | 248° |
| 2026-05-05 15:38 | 49.31797 | 3.07375 | 8724 ft | 281 kts | 248° |
| 2026-05-05 15:38 | 49.31045 | 3.04597 | 8565 ft | 281 kts | 248° |
| 2026-05-05 15:38 | 49.30299 | 3.01849 | 8408 ft | 280 kts | 248° |
| 2026-05-05 15:39 | 49.29549 | 2.99088 | 8249 ft | 280 kts | 248° |
| 2026-05-05 15:39 | 49.28795 | 2.96315 | 8093 ft | 281 kts | 248° |
| 2026-05-05 15:39 | 49.28046 | 2.93563 | 7934 ft | 281 kts | 248° |
| 2026-05-05 15:39 | 49.27298 | 2.90818 | 7778 ft | 280 kts | 248° |
| 2026-05-05 15:40 | 49.26550 | 2.88078 | 7620 ft | 279 kts | 248° |
| 2026-05-05 15:40 | 49.25806 | 2.85354 | 7464 ft | 278 kts | 248° |
| 2026-05-05 15:40 | 49.25063 | 2.82638 | 7309 ft | 279 kts | 248° |
| 2026-05-05 15:40 | 49.24316 | 2.79911 | 7150 ft | 277 kts | 248° |
| 2026-05-05 15:41 | 49.23566 | 2.77175 | 6997 ft | 276 kts | 248° |
| 2026-05-05 15:41 | 49.22831 | 2.74496 | 6845 ft | 276 kts | 248° |
| 2026-05-05 15:41 | 49.22090 | 2.71801 | 6693 ft | 275 kts | 248° |
| 2026-05-05 15:41 | 49.21354 | 2.69123 | 6594 ft | 273 kts | 248° |
| 2026-05-05 15:42 | 49.20614 | 2.66436 | 6519 ft | 275 kts | 248° |
| 2026-05-05 15:42 | 49.19868 | 2.63734 | 6390 ft | 275 kts | 248° |
| 2026-05-05 15:42 | 49.19127 | 2.61049 | 6240 ft | 274 kts | 248° |
| 2026-05-05 15:42 | 49.18397 | 2.58358 | 6080 ft | 274 kts | 252° |
| 2026-05-05 15:43 | 49.18070 | 2.55518 | 5988 ft | 270 kts | 268° |
| 2026-05-05 15:43 | 49.17992 | 2.52678 | 5977 ft | 271 kts | 271° |
| 2026-05-05 15:43 | 49.17939 | 2.49795 | 5955 ft | 268 kts | 271° |
| 2026-05-05 15:43 | 49.17883 | 2.46975 | 5665 ft | 269 kts | 271° |
| 2026-05-05 15:44 | 49.17821 | 2.44103 | 5375 ft | 268 kts | 271° |
| 2026-05-05 15:44 | 49.17759 | 2.41290 | 5144 ft | 267 kts | 270° |
| 2026-05-05 15:44 | 49.17531 | 2.38465 | 4994 ft | 266 kts | 263° |
| 2026-05-05 15:44 | 49.17213 | 2.35667 | 4981 ft | 268 kts | 262° |
| 2026-05-05 15:45 | 49.16892 | 2.32877 | 4980 ft | 269 kts | 262° |
| 2026-05-05 15:45 | 49.16566 | 2.30044 | 4983 ft | 269 kts | 262° |
| 2026-05-05 15:45 | 49.16240 | 2.27221 | 4981 ft | 269 kts | 262° |
| 2026-05-05 15:45 | 49.15919 | 2.24430 | 4932 ft | 267 kts | 262° |
| 2026-05-05 15:46 | 49.15595 | 2.21642 | 4643 ft | 269 kts | 262° |
| 2026-05-05 15:46 | 49.15259 | 2.18816 | 4401 ft | 268 kts | 262° |
| 2026-05-05 15:46 | 49.14923 | 2.16042 | 4179 ft | 268 kts | 262° |
| 2026-05-05 15:46 | 49.14578 | 2.13259 | 4000 ft | 266 kts | 261° |
| 2026-05-05 15:47 | 49.13888 | 2.10625 | 3978 ft | 271 kts | 236° |
| 2026-05-05 15:47 | 49.13139 | 2.09108 | 3987 ft | 272 kts | 232° |
| 2026-05-05 15:47 | 49.11551 | 2.06096 | 3982 ft | 271 kts | 232° |
| 2026-05-05 15:47 | 49.10372 | 2.03877 | 3980 ft | 270 kts | 230° |
| 2026-05-05 15:48 | 49.08901 | 2.02131 | 3973 ft | 271 kts | 202° |
| 2026-05-05 15:48 | 49.07065 | 2.01619 | 3970 ft | 266 kts | 172° |
| 2026-05-05 15:48 | 49.05366 | 2.02441 | 3965 ft | 258 kts | 143° |
| 2026-05-05 15:48 | 49.04157 | 2.04331 | 3959 ft | 238 kts | 116° |
| 2026-05-05 15:49 | 49.03416 | 2.06478 | 3973 ft | 223 kts | 112° |
| 2026-05-05 15:49 | 49.02736 | 2.08565 | 3984 ft | 218 kts | 112° |
| 2026-05-05 15:49 | 49.02067 | 2.10613 | 3985 ft | 217 kts | 112° |
| 2026-05-05 15:49 | 49.01392 | 2.12676 | 3994 ft | 219 kts | 112° |
| 2026-05-05 15:50 | 49.00731 | 2.14766 | 3987 ft | 215 kts | 104° |
| 2026-05-05 15:50 | 49.00537 | 2.16993 | 3996 ft | 214 kts | 86° |
| 2026-05-05 15:50 | 49.00598 | 2.19203 | 4002 ft | 206 kts | 83° |
| 2026-05-05 15:50 | 49.00711 | 2.21327 | 3984 ft | 192 kts | 81° |
| 2026-05-05 15:51 | 49.00837 | 2.23306 | 3987 ft | 189 kts | 81° |
| 2026-05-05 15:51 | 49.00964 | 2.25315 | 3888 ft | 193 kts | 81° |
| 2026-05-05 15:51 | 49.01085 | 2.27346 | 3641 ft | 192 kts | 81° |
| 2026-05-05 15:51 | 49.01201 | 2.29379 | 3397 ft | 191 kts | 81° |
| 2026-05-05 15:52 | 49.01311 | 2.31345 | 3144 ft | 185 kts | 81° |
| 2026-05-05 15:52 | 49.01419 | 2.33260 | 2899 ft | 177 kts | 81° |
| 2026-05-05 15:52 | 49.01518 | 2.35046 | 2672 ft | 162 kts | 80° |
| 2026-05-05 15:52 | 49.01612 | 2.36702 | 2465 ft | 154 kts | 80° |
| 2026-05-05 15:53 | 49.01700 | 2.38306 | 2250 ft | 147 kts | 80° |
| 2026-05-05 15:53 | 49.01782 | 2.39805 | 2067 ft | 138 kts | 80° |
| 2026-05-05 15:53 | 49.01861 | 2.41239 | 1888 ft | 135 kts | 80° |
| 2026-05-05 15:53 | 49.01939 | 2.42673 | 1716 ft | 134 kts | 80° |
| 2026-05-05 15:54 | 49.02015 | 2.44077 | 1513 ft | 135 kts | 80° |
| 2026-05-05 15:54 | 49.02094 | 2.45513 | 1329 ft | 135 kts | 80° |
| 2026-05-05 15:54 | 49.02172 | 2.46952 | 1139 ft | 139 kts | 80° |
| 2026-05-05 15:54 | 49.02249 | 2.48393 | 954 ft | 135 kts | 81° |
| 2026-05-05 15:55 | 49.02323 | 2.49822 | 754 ft | 139 kts | 81° |
| 2026-05-05 15:55 | 49.02402 | 2.51273 | 558 ft | 139 kts | 80° |
| 2026-05-05 15:55 | 49.02482 | 2.52721 | 399 ft | 136 kts | 82° |
| 2026-05-05 15:55 | 49.02555 | 2.54008 | 386 ft | 99 kts | 84° |
| 2026-05-05 15:56 | 49.02597 | 2.54794 | 384 ft | 53 kts | 85° |
| 2026-05-05 15:56 | 49.02587 | 2.55218 | 386 ft | 29 kts | 105° |
| 2026-05-05 15:56 | 49.02517 | 2.55459 | 387 ft | 23 kts | 115° |
| 2026-05-05 15:56 | 49.02470 | 2.55665 | 389 ft | 19 kts | 92° |
| 2026-05-05 15:57 | 49.02478 | 2.55841 | 389 ft | 12 kts | 84° |
| 2026-05-05 15:57 | 49.02444 | 2.55938 | 390 ft | 11 kts | 150° |
| 2026-05-05 15:57 | 49.02366 | 2.55961 | 389 ft | 12 kts | 175° |
| 2026-05-05 15:57 | 49.02268 | 2.55973 | 386 ft | 16 kts | 175° |
| 2026-05-05 15:58 | 49.02174 | 2.55985 | 383 ft | 13 kts | 174° |
| 2026-05-05 15:58 | 49.02103 | 2.56040 | 382 ft | 12 kts | 122° |
| 2026-05-05 15:58 | 49.02097 | 2.56163 | 383 ft | 10 kts | 85° |
| 2026-05-05 15:58 | 49.02080 | 2.56272 | 383 ft | 12 kts | 129° |
| 2026-05-05 15:59 | 49.02027 | 2.56386 | 381 ft | 14 kts | 109° |
| 2026-05-05 15:59 | 49.02026 | 2.56539 | 381 ft | 14 kts | 84° |
| 2026-05-05 15:59 | 49.02034 | 2.56687 | 380 ft | 14 kts | 85° |
| 2026-05-05 15:59 | 49.02043 | 2.56862 | 377 ft | 17 kts | 84° |
| 2026-05-05 16:00 | 49.02054 | 2.57061 | 374 ft | 19 kts | 85° |
| 2026-05-05 16:00 | 49.02065 | 2.57272 | 372 ft | 20 kts | 84° |
| 2026-05-05 16:00 | 49.02077 | 2.57480 | 373 ft | 19 kts | 84° |
| 2026-05-05 16:00 | 49.02087 | 2.57679 | 373 ft | 18 kts | 85° |
| 2026-05-05 16:01 | 49.02068 | 2.57866 | 372 ft | 18 kts | 111° |
| 2026-05-05 16:01 | 49.01993 | 2.58024 | 369 ft | 19 kts | 138° |
| 2026-05-05 16:01 | 49.01869 | 2.58116 | 365 ft | 21 kts | 168° |
| 2026-05-05 16:01 | 49.01715 | 2.58139 | 359 ft | 23 kts | 175° |
| 2026-05-05 16:02 | 49.01542 | 2.58159 | 352 ft | 25 kts | 175° |
| 2026-05-05 16:02 | 49.01361 | 2.58183 | 349 ft | 26 kts | 175° |
| 2026-05-05 16:02 | 49.01179 | 2.58205 | 349 ft | 25 kts | 175° |
| 2026-05-05 16:02 | 49.01025 | 2.58224 | 349 ft | 13 kts | 174° |
| 2026-05-05 16:03 | 49.00946 | 2.58249 | 348 ft | 11 kts | 147° |
| 2026-05-05 16:03 | 49.00921 | 2.58368 | 346 ft | 13 kts | 85° |
| 2026-05-05 16:03 | 49.00928 | 2.58509 | 343 ft | 11 kts | 84° |
| 2026-05-05 16:03 | 49.00911 | 2.58620 | 341 ft | 11 kts | 149° |
| 2026-05-05 16:04 | 49.00830 | 2.58662 | 340 ft | 12 kts | 156° |
| 2026-05-05 16:04 | 49.00776 | 2.58685 | 340 ft | 5 kts | 184° |
| 2026-05-05 16:04 | 49.00758 | 2.58655 | 340 ft | 3 kts | 257° |
| 2026-05-05 16:04 | 49.00754 | 2.58616 | 341 ft | 4 kts | 262° |
| 2026-05-05 16:05 | 49.00751 | 2.58577 | 342 ft | 2 kts | 264° |
| 2026-05-05 16:05 | 49.00750 | 2.58567 | 342 ft | 0 kts | 265° |
| 2026-05-05 16:05 | 49.00750 | 2.58563 | 342 ft | 0 kts | 265° |